PWSweather.com
Personal Weather Stations
Station Observations
EI4HQ
Cork Harbour, CobhIE

Cork HarbourCobhIE

Lat: 51.85, Lon: -8.29

Elevation: 252

Station Type: Davis Vantage Pro2

http://www.corkharbourweather.ie

High Low Average
Temperature 64.6°F18.1°C 51.6°F10.9°C 58.9°F14.9°C
Dew Point 58.1°F14.5°C 43.0°F6.1°C 52.1°F11.2°C
Winds 16.0 mph 25.7 kmh 3.0 mph 4.8 kmh 8.0 mph NW12.9 kmh NW
Wind Gusts 24.0 mph38.6 kmh 8.0 mph12.9 kmh 17.0 mph27.4 kmh
Humidity 94% 56% 79%
Pressure 30.33 in1027.1 mb 29.98 in1015.2 mb -
Precipitation 0.01 in0.3 mm - -
Hour Temp Dew Point Humidity Winds Wind Gusts Pressure Precip Precip Rate Daily Precip Total
12:00 AM 59.7°F15.4°C 58.1°F14.5°C 94% 8.0 mph SW12.9 kmh SW 19.0 mph30.6 kmh 30.01 in1016.3 mb 0.00 in0.0 mm 0.00 in0.0 mm 0.00 in0.0 mm
12:03 AM 59.7°F15.4°C 58.1°F14.5°C 94% 8.0 mph SW12.9 kmh SW 19.0 mph30.6 kmh 30.00 in1015.9 mb 0.00 in0.0 mm 0.00 in0.0 mm 0.00 in0.0 mm
12:06 AM 59.7°F15.4°C 58.1°F14.5°C 94% 8.0 mph SW12.9 kmh SW 19.0 mph30.6 kmh 30.01 in1016.3 mb 0.00 in0.0 mm 0.00 in0.0 mm 0.00 in0.0 mm
12:09 AM 59.7°F15.4°C 58.1°F14.5°C 94% 8.0 mph SSW12.9 kmh SSW 19.0 mph30.6 kmh 30.00 in1015.9 mb 0.00 in0.0 mm 0.00 in0.0 mm 0.00 in0.0 mm
12:12 AM 59.7°F15.4°C 58.1°F14.5°C 94% 8.0 mph SSW12.9 kmh SSW 19.0 mph30.6 kmh 30.01 in1016.3 mb 0.00 in0.0 mm 0.00 in0.0 mm 0.00 in0.0 mm
12:15 AM 59.7°F15.4°C 58.1°F14.5°C 94% 8.0 mph SSW12.9 kmh SSW 17.0 mph27.4 kmh 30.00 in1015.9 mb 0.00 in0.0 mm 0.00 in0.0 mm 0.00 in0.0 mm
12:18 AM 59.7°F15.4°C 58.1°F14.5°C 94% 8.0 mph SSW12.9 kmh SSW 17.0 mph27.4 kmh 30.00 in1015.9 mb 0.00 in0.0 mm 0.00 in0.0 mm 0.00 in0.0 mm
12:21 AM 59.7°F15.4°C 58.1°F14.5°C 94% 8.0 mph SW12.9 kmh SW 17.0 mph27.4 kmh 30.00 in1015.9 mb 0.00 in0.0 mm 0.00 in0.0 mm 0.00 in0.0 mm
12:24 AM 59.7°F15.4°C 58.1°F14.5°C 94% 9.0 mph SW14.5 kmh SW 17.0 mph27.4 kmh 30.00 in1015.9 mb 0.00 in0.0 mm 0.00 in0.0 mm 0.00 in0.0 mm
12:27 AM 59.7°F15.4°C 58.1°F14.5°C 94% 9.0 mph SW14.5 kmh SW 17.0 mph27.4 kmh 30.00 in1015.9 mb 0.00 in0.0 mm 0.00 in0.0 mm 0.00 in0.0 mm
12:30 AM 59.7°F15.4°C 58.1°F14.5°C 94% 9.0 mph SW14.5 kmh SW 17.0 mph27.4 kmh 30.00 in1015.9 mb 0.00 in0.0 mm 0.00 in0.0 mm 0.00 in0.0 mm
12:33 AM 59.7°F15.4°C 58.1°F14.5°C 94% 9.0 mph SSW14.5 kmh SSW 17.0 mph27.4 kmh 30.00 in1015.9 mb 0.00 in0.0 mm 0.00 in0.0 mm 0.00 in0.0 mm
12:36 AM 59.7°F15.4°C 58.1°F14.5°C 94% 8.0 mph SSW12.9 kmh SSW 17.0 mph27.4 kmh 30.00 in1015.9 mb 0.00 in0.0 mm 0.00 in0.0 mm 0.00 in0.0 mm
12:39 AM 59.7°F15.4°C 58.1°F14.5°C 94% 8.0 mph SSW12.9 kmh SSW 17.0 mph27.4 kmh 30.00 in1015.9 mb 0.00 in0.0 mm 0.00 in0.0 mm 0.00 in0.0 mm
12:42 AM 59.7°F15.4°C 58.1°F14.5°C 94% 8.0 mph SSW12.9 kmh SSW 17.0 mph27.4 kmh 30.00 in1015.9 mb 0.00 in0.0 mm 0.00 in0.0 mm 0.00 in0.0 mm
12:45 AM 59.7°F15.4°C 58.1°F14.5°C 94% 7.0 mph SW11.3 kmh SW 16.0 mph25.7 kmh 30.00 in1015.9 mb 0.00 in0.0 mm 0.00 in0.0 mm 0.00 in0.0 mm
12:48 AM 59.7°F15.4°C 58.1°F14.5°C 94% 6.0 mph SW9.7 kmh SW 15.0 mph24.1 kmh 30.00 in1015.9 mb 0.00 in0.0 mm 0.00 in0.0 mm 0.00 in0.0 mm
12:51 AM 59.7°F15.4°C 58.1°F14.5°C 94% 6.0 mph SW9.7 kmh SW 15.0 mph24.1 kmh 30.00 in1015.9 mb 0.00 in0.0 mm 0.00 in0.0 mm 0.00 in0.0 mm
12:54 AM 59.7°F15.4°C 58.1°F14.5°C 94% 6.0 mph SSW9.7 kmh SSW 17.0 mph27.4 kmh 30.00 in1015.9 mb 0.00 in0.0 mm 0.00 in0.0 mm 0.00 in0.0 mm
12:57 AM 59.7°F15.4°C 58.1°F14.5°C 94% 7.0 mph SSW11.3 kmh SSW 17.0 mph27.4 kmh 30.00 in1015.9 mb 0.00 in0.0 mm 0.00 in0.0 mm 0.00 in0.0 mm
01:00 AM 59.7°F15.4°C 58.1°F14.5°C 94% 7.0 mph SW11.3 kmh SW 17.0 mph27.4 kmh 30.00 in1015.9 mb 0.00 in0.0 mm 0.00 in0.0 mm 0.00 in0.0 mm
01:03 AM 59.7°F15.4°C 58.1°F14.5°C 94% 7.0 mph SW11.3 kmh SW 16.0 mph25.7 kmh 30.00 in1015.9 mb 0.00 in0.0 mm 0.00 in0.0 mm 0.00 in0.0 mm
01:06 AM 59.7°F15.4°C 58.1°F14.5°C 94% 8.0 mph SW12.9 kmh SW 16.0 mph25.7 kmh 30.00 in1015.9 mb 0.00 in0.0 mm 0.00 in0.0 mm 0.00 in0.0 mm
01:09 AM 59.7°F15.4°C 58.1°F14.5°C 94% 7.0 mph SW11.3 kmh SW 15.0 mph24.1 kmh 30.00 in1015.9 mb 0.00 in0.0 mm 0.00 in0.0 mm 0.00 in0.0 mm
01:12 AM 59.7°F15.4°C 58.1°F14.5°C 94% 8.0 mph SW12.9 kmh SW 16.0 mph25.7 kmh 30.00 in1015.9 mb 0.00 in0.0 mm 0.00 in0.0 mm 0.00 in0.0 mm
01:15 AM 59.7°F15.4°C 58.1°F14.5°C 94% 7.0 mph SW11.3 kmh SW 18.0 mph29.0 kmh 30.00 in1015.9 mb 0.00 in0.0 mm 0.00 in0.0 mm 0.00 in0.0 mm
01:18 AM 59.7°F15.4°C 58.1°F14.5°C 94% 7.0 mph SW11.3 kmh SW 18.0 mph29.0 kmh 29.99 in1015.6 mb 0.00 in0.0 mm 0.00 in0.0 mm 0.00 in0.0 mm
01:21 AM 59.7°F15.4°C 58.1°F14.5°C 94% 7.0 mph SW11.3 kmh SW 18.0 mph29.0 kmh 29.99 in1015.6 mb 0.00 in0.0 mm 0.00 in0.0 mm 0.00 in0.0 mm
01:24 AM 59.7°F15.4°C 58.1°F14.5°C 94% 7.0 mph SW11.3 kmh SW 20.0 mph32.2 kmh 29.99 in1015.6 mb 0.00 in0.0 mm 0.00 in0.0 mm 0.00 in0.0 mm
01:27 AM 59.7°F15.4°C 58.1°F14.5°C 94% 7.0 mph SW11.3 kmh SW 20.0 mph32.2 kmh 29.99 in1015.6 mb 0.00 in0.0 mm 0.00 in0.0 mm 0.00 in0.0 mm
01:30 AM 59.7°F15.4°C 58.1°F14.5°C 94% 7.0 mph SW11.3 kmh SW 20.0 mph32.2 kmh 30.00 in1015.9 mb 0.00 in0.0 mm 0.00 in0.0 mm 0.00 in0.0 mm
01:33 AM 59.7°F15.4°C 58.1°F14.5°C 94% 8.0 mph SW12.9 kmh SW 17.0 mph27.4 kmh 30.00 in1015.9 mb 0.00 in0.0 mm 0.00 in0.0 mm 0.00 in0.0 mm
01:36 AM 59.7°F15.4°C 58.1°F14.5°C 94% 7.0 mph SW11.3 kmh SW 17.0 mph27.4 kmh 29.99 in1015.6 mb 0.00 in0.0 mm 0.00 in0.0 mm 0.00 in0.0 mm
01:39 AM 59.7°F15.4°C 58.1°F14.5°C 94% 7.0 mph SW11.3 kmh SW 17.0 mph27.4 kmh 29.99 in1015.6 mb 0.00 in0.0 mm 0.00 in0.0 mm 0.00 in0.0 mm
01:42 AM 59.7°F15.4°C 58.1°F14.5°C 94% 7.0 mph SW11.3 kmh SW 15.0 mph24.1 kmh 29.99 in1015.6 mb 0.00 in0.0 mm 0.00 in0.0 mm 0.00 in0.0 mm
01:45 AM 59.7°F15.4°C 58.1°F14.5°C 94% 7.0 mph SW11.3 kmh SW 16.0 mph25.7 kmh 29.99 in1015.6 mb 0.00 in0.0 mm 0.00 in0.0 mm 0.00 in0.0 mm
01:48 AM 59.7°F15.4°C 58.1°F14.5°C 94% 7.0 mph SW11.3 kmh SW 16.0 mph25.7 kmh 29.99 in1015.6 mb 0.00 in0.0 mm 0.00 in0.0 mm 0.00 in0.0 mm
01:51 AM 59.7°F15.4°C 58.1°F14.5°C 94% 7.0 mph SW11.3 kmh SW 16.0 mph25.7 kmh 29.99 in1015.6 mb 0.00 in0.0 mm 0.00 in0.0 mm 0.00 in0.0 mm
01:54 AM 59.7°F15.4°C 58.1°F14.5°C 94% 7.0 mph SW11.3 kmh SW 16.0 mph25.7 kmh 29.99 in1015.6 mb 0.00 in0.0 mm 0.00 in0.0 mm 0.00 in0.0 mm
01:57 AM 59.7°F15.4°C 58.1°F14.5°C 94% 6.0 mph SW9.7 kmh SW 15.0 mph24.1 kmh 29.99 in1015.6 mb 0.00 in0.0 mm 0.00 in0.0 mm 0.00 in0.0 mm
02:00 AM 59.7°F15.4°C 58.1°F14.5°C 94% 7.0 mph SSW11.3 kmh SSW 17.0 mph27.4 kmh 29.99 in1015.6 mb 0.00 in0.0 mm 0.00 in0.0 mm 0.00 in0.0 mm
02:03 AM 59.7°F15.4°C 58.1°F14.5°C 94% 7.0 mph SW11.3 kmh SW 17.0 mph27.4 kmh 29.99 in1015.6 mb 0.00 in0.0 mm 0.00 in0.0 mm 0.00 in0.0 mm
02:06 AM 59.7°F15.4°C 58.1°F14.5°C 94% 8.0 mph SW12.9 kmh SW 20.0 mph32.2 kmh 29.99 in1015.6 mb 0.00 in0.0 mm 0.00 in0.0 mm 0.00 in0.0 mm
02:09 AM 59.7°F15.4°C 58.1°F14.5°C 94% 8.0 mph SW12.9 kmh SW 20.0 mph32.2 kmh 29.99 in1015.6 mb 0.00 in0.0 mm 0.00 in0.0 mm 0.00 in0.0 mm
02:12 AM 59.7°F15.4°C 58.1°F14.5°C 94% 8.0 mph SW12.9 kmh SW 20.0 mph32.2 kmh 29.99 in1015.6 mb 0.00 in0.0 mm 0.00 in0.0 mm 0.00 in0.0 mm
02:15 AM 59.7°F15.4°C 58.1°F14.5°C 94% 8.0 mph SW12.9 kmh SW 20.0 mph32.2 kmh 29.99 in1015.6 mb 0.00 in0.0 mm 0.00 in0.0 mm 0.00 in0.0 mm
02:18 AM 59.7°F15.4°C 58.1°F14.5°C 94% 8.0 mph SW12.9 kmh SW 20.0 mph32.2 kmh 29.99 in1015.6 mb 0.00 in0.0 mm 0.00 in0.0 mm 0.00 in0.0 mm
02:21 AM 59.7°F15.4°C 58.1°F14.5°C 94% 8.0 mph SW12.9 kmh SW 20.0 mph32.2 kmh 29.99 in1015.6 mb 0.00 in0.0 mm 0.00 in0.0 mm 0.00 in0.0 mm
02:24 AM 59.7°F15.4°C 58.1°F14.5°C 94% 6.0 mph WSW9.7 kmh WSW 16.0 mph25.7 kmh 30.00 in1015.9 mb 0.00 in0.0 mm 0.00 in0.0 mm 0.00 in0.0 mm
02:27 AM 59.7°F15.4°C 58.1°F14.5°C 94% 6.0 mph WSW9.7 kmh WSW 14.0 mph22.5 kmh 30.00 in1015.9 mb 0.00 in0.0 mm 0.00 in0.0 mm 0.00 in0.0 mm
02:30 AM 59.7°F15.4°C 58.1°F14.5°C 94% 6.0 mph WSW9.7 kmh WSW 14.0 mph22.5 kmh 30.00 in1015.9 mb 0.00 in0.0 mm 0.00 in0.0 mm 0.00 in0.0 mm
02:33 AM 59.7°F15.4°C 58.1°F14.5°C 94% 6.0 mph WSW9.7 kmh WSW 14.0 mph22.5 kmh 30.00 in1015.9 mb 0.00 in0.0 mm 0.00 in0.0 mm 0.00 in0.0 mm
02:36 AM 59.7°F15.4°C 58.1°F14.5°C 94% 6.0 mph WSW9.7 kmh WSW 15.0 mph24.1 kmh 30.00 in1015.9 mb 0.00 in0.0 mm 0.00 in0.0 mm 0.00 in0.0 mm
02:39 AM 59.7°F15.4°C 58.1°F14.5°C 94% 6.0 mph WSW9.7 kmh WSW 15.0 mph24.1 kmh 29.99 in1015.6 mb 0.00 in0.0 mm 0.00 in0.0 mm 0.00 in0.0 mm
02:42 AM 59.7°F15.4°C 58.1°F14.5°C 94% 6.0 mph WSW9.7 kmh WSW 15.0 mph24.1 kmh 29.99 in1015.6 mb 0.00 in0.0 mm 0.00 in0.0 mm 0.00 in0.0 mm
02:45 AM 59.7°F15.4°C 58.1°F14.5°C 94% 6.0 mph WSW9.7 kmh WSW 13.0 mph20.9 kmh 29.99 in1015.6 mb 0.00 in0.0 mm 0.00 in0.0 mm 0.00 in0.0 mm
02:48 AM 59.7°F15.4°C 58.1°F14.5°C 94% 6.0 mph WSW9.7 kmh WSW 13.0 mph20.9 kmh 29.99 in1015.6 mb 0.00 in0.0 mm 0.00 in0.0 mm 0.00 in0.0 mm
02:51 AM 59.7°F15.4°C 58.1°F14.5°C 94% 6.0 mph WSW9.7 kmh WSW 13.0 mph20.9 kmh 29.99 in1015.6 mb 0.00 in0.0 mm 0.00 in0.0 mm 0.00 in0.0 mm
02:54 AM 59.7°F15.4°C 58.1°F14.5°C 94% 6.0 mph WSW9.7 kmh WSW 14.0 mph22.5 kmh 29.99 in1015.6 mb 0.00 in0.0 mm 0.00 in0.0 mm 0.00 in0.0 mm
02:57 AM 59.7°F15.4°C 58.1°F14.5°C 94% 6.0 mph WSW9.7 kmh WSW 16.0 mph25.7 kmh 29.99 in1015.6 mb 0.00 in0.0 mm 0.00 in0.0 mm 0.00 in0.0 mm
03:00 AM 59.7°F15.4°C 58.1°F14.5°C 94% 7.0 mph WSW11.3 kmh WSW 16.0 mph25.7 kmh 29.99 in1015.6 mb 0.00 in0.0 mm 0.00 in0.0 mm 0.00 in0.0 mm
03:03 AM 59.7°F15.4°C 58.1°F14.5°C 94% 7.0 mph WSW11.3 kmh WSW 16.0 mph25.7 kmh 29.99 in1015.6 mb 0.00 in0.0 mm 0.00 in0.0 mm 0.00 in0.0 mm
03:06 AM 59.7°F15.4°C 58.1°F14.5°C 94% 7.0 mph WSW11.3 kmh WSW 17.0 mph27.4 kmh 29.99 in1015.6 mb 0.00 in0.0 mm 0.00 in0.0 mm 0.00 in0.0 mm
03:09 AM 59.7°F15.4°C 58.1°F14.5°C 94% 7.0 mph WSW11.3 kmh WSW 17.0 mph27.4 kmh 29.99 in1015.6 mb 0.00 in0.0 mm 0.00 in0.0 mm 0.00 in0.0 mm
03:12 AM 59.7°F15.4°C 58.1°F14.5°C 94% 7.0 mph WSW11.3 kmh WSW 17.0 mph27.4 kmh 29.99 in1015.6 mb 0.00 in0.0 mm 0.00 in0.0 mm 0.00 in0.0 mm
03:15 AM 59.7°F15.4°C 58.1°F14.5°C 94% 6.0 mph WSW9.7 kmh WSW 14.0 mph22.5 kmh 29.99 in1015.6 mb 0.00 in0.0 mm 0.00 in0.0 mm 0.00 in0.0 mm
03:18 AM 59.7°F15.4°C 58.1°F14.5°C 94% 6.0 mph WSW9.7 kmh WSW 15.0 mph24.1 kmh 29.99 in1015.6 mb 0.00 in0.0 mm 0.00 in0.0 mm 0.00 in0.0 mm
03:21 AM 59.7°F15.4°C 58.1°F14.5°C 94% 6.0 mph WSW9.7 kmh WSW 17.0 mph27.4 kmh 29.99 in1015.6 mb 0.00 in0.0 mm 0.00 in0.0 mm 0.00 in0.0 mm
03:24 AM 59.7°F15.4°C 58.1°F14.5°C 94% 6.0 mph WSW9.7 kmh WSW 17.0 mph27.4 kmh 29.99 in1015.6 mb 0.00 in0.0 mm 0.00 in0.0 mm 0.00 in0.0 mm
03:27 AM 59.7°F15.4°C 58.1°F14.5°C 94% 6.0 mph WSW9.7 kmh WSW 17.0 mph27.4 kmh 29.99 in1015.6 mb 0.00 in0.0 mm 0.00 in0.0 mm 0.00 in0.0 mm
03:30 AM 59.7°F15.4°C 58.1°F14.5°C 94% 6.0 mph WSW9.7 kmh WSW 14.0 mph22.5 kmh 29.99 in1015.6 mb 0.00 in0.0 mm 0.00 in0.0 mm 0.00 in0.0 mm
03:33 AM 59.7°F15.4°C 58.1°F14.5°C 94% 5.0 mph WSW8.0 kmh WSW 14.0 mph22.5 kmh 29.99 in1015.6 mb 0.00 in0.0 mm 0.00 in0.0 mm 0.00 in0.0 mm
03:36 AM 59.7°F15.4°C 58.1°F14.5°C 94% 5.0 mph WSW8.0 kmh WSW 10.0 mph16.1 kmh 29.98 in1015.2 mb 0.00 in0.0 mm 0.00 in0.0 mm 0.00 in0.0 mm
03:39 AM 59.7°F15.4°C 58.1°F14.5°C 94% 5.0 mph SW8.0 kmh SW 11.0 mph17.7 kmh 29.98 in1015.2 mb 0.00 in0.0 mm 0.00 in0.0 mm 0.00 in0.0 mm
03:42 AM 59.7°F15.4°C 58.1°F14.5°C 94% 5.0 mph SW8.0 kmh SW 11.0 mph17.7 kmh 29.98 in1015.2 mb 0.00 in0.0 mm 0.00 in0.0 mm 0.00 in0.0 mm
03:45 AM 59.7°F15.4°C 58.1°F14.5°C 94% 6.0 mph SW9.7 kmh SW 12.0 mph19.3 kmh 29.99 in1015.6 mb 0.00 in0.0 mm 0.00 in0.0 mm 0.00 in0.0 mm
03:48 AM 59.7°F15.4°C 58.1°F14.5°C 94% 6.0 mph SW9.7 kmh SW 12.0 mph19.3 kmh 29.98 in1015.2 mb 0.00 in0.0 mm 0.00 in0.0 mm 0.00 in0.0 mm
03:51 AM 59.7°F15.4°C 58.1°F14.5°C 94% 6.0 mph SW9.7 kmh SW 12.0 mph19.3 kmh 29.98 in1015.2 mb 0.00 in0.0 mm 0.00 in0.0 mm 0.00 in0.0 mm
03:54 AM 59.7°F15.4°C 58.1°F14.5°C 94% 6.0 mph WSW9.7 kmh WSW 12.0 mph19.3 kmh 29.99 in1015.6 mb 0.00 in0.0 mm 0.00 in0.0 mm 0.00 in0.0 mm
03:57 AM 59.7°F15.4°C 58.1°F14.5°C 94% 6.0 mph WSW9.7 kmh WSW 13.0 mph20.9 kmh 29.99 in1015.6 mb 0.00 in0.0 mm 0.00 in0.0 mm 0.00 in0.0 mm
04:00 AM 59.7°F15.4°C 58.1°F14.5°C 94% 6.0 mph WSW9.7 kmh WSW 13.0 mph20.9 kmh 29.99 in1015.6 mb 0.00 in0.0 mm 0.00 in0.0 mm 0.00 in0.0 mm
04:03 AM 59.7°F15.4°C 58.1°F14.5°C 94% 6.0 mph WSW9.7 kmh WSW 13.0 mph20.9 kmh 29.99 in1015.6 mb 0.00 in0.0 mm 0.00 in0.0 mm 0.00 in0.0 mm
04:06 AM 59.7°F15.4°C 58.1°F14.5°C 94% 6.0 mph WSW9.7 kmh WSW 13.0 mph20.9 kmh 29.99 in1015.6 mb 0.00 in0.0 mm 0.00 in0.0 mm 0.00 in0.0 mm
04:09 AM 59.7°F15.4°C 58.1°F14.5°C 94% 5.0 mph WSW8.0 kmh WSW 13.0 mph20.9 kmh 29.99 in1015.6 mb 0.00 in0.0 mm 0.00 in0.0 mm 0.00 in0.0 mm
04:12 AM 59.7°F15.4°C 58.1°F14.5°C 94% 5.0 mph WSW8.0 kmh WSW 13.0 mph20.9 kmh 29.99 in1015.6 mb 0.00 in0.0 mm 0.00 in0.0 mm 0.00 in0.0 mm
04:15 AM 59.7°F15.4°C 58.1°F14.5°C 94% 5.0 mph WSW8.0 kmh WSW 12.0 mph19.3 kmh 29.99 in1015.6 mb 0.00 in0.0 mm 0.00 in0.0 mm 0.00 in0.0 mm
04:18 AM 59.7°F15.4°C 58.1°F14.5°C 94% 5.0 mph WSW8.0 kmh WSW 12.0 mph19.3 kmh 29.99 in1015.6 mb 0.00 in0.0 mm 0.00 in0.0 mm 0.00 in0.0 mm
04:21 AM 59.7°F15.4°C 58.1°F14.5°C 94% 5.0 mph WSW8.0 kmh WSW 11.0 mph17.7 kmh 29.99 in1015.6 mb 0.00 in0.0 mm 0.00 in0.0 mm 0.00 in0.0 mm
04:24 AM 59.7°F15.4°C 58.1°F14.5°C 94% 4.0 mph WSW6.4 kmh WSW 10.0 mph16.1 kmh 29.99 in1015.6 mb 0.00 in0.0 mm 0.00 in0.0 mm 0.00 in0.0 mm
04:27 AM 59.7°F15.4°C 58.1°F14.5°C 94% 3.0 mph WSW4.8 kmh WSW 8.0 mph12.9 kmh 29.99 in1015.6 mb 0.00 in0.0 mm 0.00 in0.0 mm 0.00 in0.0 mm
04:30 AM 59.7°F15.4°C 58.1°F14.5°C 94% 3.0 mph WSW4.8 kmh WSW 8.0 mph12.9 kmh 29.99 in1015.6 mb 0.00 in0.0 mm 0.00 in0.0 mm 0.00 in0.0 mm
04:33 AM 59.7°F15.4°C 58.1°F14.5°C 94% 3.0 mph WSW4.8 kmh WSW 8.0 mph12.9 kmh 29.99 in1015.6 mb 0.00 in0.0 mm 0.00 in0.0 mm 0.00 in0.0 mm
04:36 AM 59.7°F15.4°C 58.1°F14.5°C 94% 3.0 mph WSW4.8 kmh WSW 9.0 mph14.5 kmh 29.99 in1015.6 mb 0.00 in0.0 mm 0.00 in0.0 mm 0.00 in0.0 mm
04:39 AM 59.7°F15.4°C 58.1°F14.5°C 94% 3.0 mph WSW4.8 kmh WSW 9.0 mph14.5 kmh 29.99 in1015.6 mb 0.00 in0.0 mm 0.00 in0.0 mm 0.00 in0.0 mm
04:42 AM 59.7°F15.4°C 58.1°F14.5°C 94% 4.0 mph WSW6.4 kmh WSW 9.0 mph14.5 kmh 29.99 in1015.6 mb 0.00 in0.0 mm 0.00 in0.0 mm 0.00 in0.0 mm
04:45 AM 59.7°F15.4°C 58.1°F14.5°C 94% 4.0 mph WSW6.4 kmh WSW 8.0 mph12.9 kmh 29.99 in1015.6 mb 0.00 in0.0 mm 0.00 in0.0 mm 0.00 in0.0 mm
04:48 AM 59.7°F15.4°C 58.1°F14.5°C 94% 4.0 mph WSW6.4 kmh WSW 8.0 mph12.9 kmh 29.99 in1015.6 mb 0.00 in0.0 mm 0.00 in0.0 mm 0.00 in0.0 mm
04:51 AM 59.7°F15.4°C 58.1°F14.5°C 94% 4.0 mph WSW6.4 kmh WSW 13.0 mph20.9 kmh 29.99 in1015.6 mb 0.00 in0.0 mm 0.00 in0.0 mm 0.00 in0.0 mm
04:54 AM 59.7°F15.4°C 58.1°F14.5°C 94% 4.0 mph WSW6.4 kmh WSW 13.0 mph20.9 kmh 29.99 in1015.6 mb 0.00 in0.0 mm 0.00 in0.0 mm 0.00 in0.0 mm
04:57 AM 59.7°F15.4°C 58.1°F14.5°C 94% 4.0 mph WSW6.4 kmh WSW 13.0 mph20.9 kmh 29.99 in1015.6 mb 0.00 in0.0 mm 0.00 in0.0 mm 0.00 in0.0 mm
05:00 AM 59.7°F15.4°C 58.1°F14.5°C 94% 4.0 mph WSW6.4 kmh WSW 10.0 mph16.1 kmh 29.99 in1015.6 mb 0.00 in0.0 mm 0.00 in0.0 mm 0.00 in0.0 mm
05:03 AM 59.7°F15.4°C 58.1°F14.5°C 94% 5.0 mph WSW8.0 kmh WSW 11.0 mph17.7 kmh 29.99 in1015.6 mb 0.00 in0.0 mm 0.00 in0.0 mm 0.00 in0.0 mm
05:06 AM 59.7°F15.4°C 58.1°F14.5°C 94% 5.0 mph WSW8.0 kmh WSW 11.0 mph17.7 kmh 29.99 in1015.6 mb 0.00 in0.0 mm 0.00 in0.0 mm 0.00 in0.0 mm
05:09 AM 59.7°F15.4°C 58.1°F14.5°C 94% 5.0 mph WSW8.0 kmh WSW 11.0 mph17.7 kmh 29.99 in1015.6 mb 0.00 in0.0 mm 0.00 in0.0 mm 0.00 in0.0 mm
05:12 AM 59.7°F15.4°C 58.1°F14.5°C 94% 5.0 mph WSW8.0 kmh WSW 11.0 mph17.7 kmh 29.99 in1015.6 mb 0.00 in0.0 mm 0.00 in0.0 mm 0.00 in0.0 mm
05:15 AM 59.7°F15.4°C 58.1°F14.5°C 94% 4.0 mph WSW6.4 kmh WSW 10.0 mph16.1 kmh 29.99 in1015.6 mb 0.00 in0.0 mm 0.00 in0.0 mm 0.00 in0.0 mm
05:18 AM 59.7°F15.4°C 58.1°F14.5°C 94% 4.0 mph WSW6.4 kmh WSW 10.0 mph16.1 kmh 29.99 in1015.6 mb 0.00 in0.0 mm 0.00 in0.0 mm 0.00 in0.0 mm
05:21 AM 59.7°F15.4°C 58.1°F14.5°C 94% 4.0 mph WSW6.4 kmh WSW 10.0 mph16.1 kmh 29.99 in1015.6 mb 0.00 in0.0 mm 0.00 in0.0 mm 0.00 in0.0 mm
05:24 AM 59.7°F15.4°C 58.1°F14.5°C 94% 4.0 mph WSW6.4 kmh WSW 10.0 mph16.1 kmh 29.99 in1015.6 mb 0.00 in0.0 mm 0.00 in0.0 mm 0.00 in0.0 mm
05:27 AM 59.7°F15.4°C 58.1°F14.5°C 94% 4.0 mph WSW6.4 kmh WSW 10.0 mph16.1 kmh 30.00 in1015.9 mb 0.00 in0.0 mm 0.00 in0.0 mm 0.00 in0.0 mm
05:30 AM 59.7°F15.4°C 58.1°F14.5°C 94% 4.0 mph WSW6.4 kmh WSW 11.0 mph17.7 kmh 30.00 in1015.9 mb 0.00 in0.0 mm 0.00 in0.0 mm 0.00 in0.0 mm
05:33 AM 59.7°F15.4°C 58.1°F14.5°C 94% 4.0 mph W6.4 kmh W 11.0 mph17.7 kmh 30.00 in1015.9 mb 0.00 in0.0 mm 0.00 in0.0 mm 0.00 in0.0 mm
05:36 AM 59.7°F15.4°C 58.1°F14.5°C 94% 4.0 mph WSW6.4 kmh WSW 11.0 mph17.7 kmh 30.00 in1015.9 mb 0.00 in0.0 mm 0.00 in0.0 mm 0.00 in0.0 mm
05:39 AM 59.7°F15.4°C 58.1°F14.5°C 94% 5.0 mph WSW8.0 kmh WSW 11.0 mph17.7 kmh 30.00 in1015.9 mb 0.00 in0.0 mm 0.00 in0.0 mm 0.00 in0.0 mm
05:42 AM 59.7°F15.4°C 58.1°F14.5°C 94% 4.0 mph WSW6.4 kmh WSW 11.0 mph17.7 kmh 30.00 in1015.9 mb 0.00 in0.0 mm 0.00 in0.0 mm 0.00 in0.0 mm
05:45 AM 59.7°F15.4°C 58.1°F14.5°C 94% 4.0 mph WSW6.4 kmh WSW 10.0 mph16.1 kmh 30.01 in1016.3 mb 0.00 in0.0 mm 0.00 in0.0 mm 0.00 in0.0 mm
05:48 AM 59.7°F15.4°C 58.1°F14.5°C 94% 4.0 mph WSW6.4 kmh WSW 10.0 mph16.1 kmh 30.00 in1015.9 mb 0.00 in0.0 mm 0.00 in0.0 mm 0.00 in0.0 mm
05:51 AM 59.7°F15.4°C 58.1°F14.5°C 94% 4.0 mph WSW6.4 kmh WSW 9.0 mph14.5 kmh 30.00 in1015.9 mb 0.00 in0.0 mm 0.00 in0.0 mm 0.00 in0.0 mm
05:54 AM 59.7°F15.4°C 58.1°F14.5°C 94% 5.0 mph WSW8.0 kmh WSW 9.0 mph14.5 kmh 30.00 in1015.9 mb 0.00 in0.0 mm 0.00 in0.0 mm 0.00 in0.0 mm
05:57 AM 59.7°F15.4°C 58.1°F14.5°C 94% 5.0 mph WSW8.0 kmh WSW 11.0 mph17.7 kmh 30.00 in1015.9 mb 0.00 in0.0 mm 0.00 in0.0 mm 0.00 in0.0 mm
06:00 AM 59.7°F15.4°C 58.1°F14.5°C 94% 5.0 mph WSW8.0 kmh WSW 11.0 mph17.7 kmh 30.01 in1016.3 mb 0.00 in0.0 mm 0.00 in0.0 mm 0.00 in0.0 mm
06:03 AM 59.7°F15.4°C 58.1°F14.5°C 94% 5.0 mph WSW8.0 kmh WSW 12.0 mph19.3 kmh 30.00 in1015.9 mb 0.00 in0.0 mm 0.00 in0.0 mm 0.00 in0.0 mm
06:06 AM 59.7°F15.4°C 58.1°F14.5°C 94% 5.0 mph WSW8.0 kmh WSW 12.0 mph19.3 kmh 30.00 in1015.9 mb 0.00 in0.0 mm 0.00 in0.0 mm 0.00 in0.0 mm
06:09 AM 59.7°F15.4°C 58.1°F14.5°C 94% 5.0 mph WSW8.0 kmh WSW 12.0 mph19.3 kmh 30.01 in1016.3 mb 0.00 in0.0 mm 0.00 in0.0 mm 0.00 in0.0 mm
06:12 AM 59.7°F15.4°C 58.1°F14.5°C 94% 5.0 mph WSW8.0 kmh WSW 10.0 mph16.1 kmh 30.01 in1016.3 mb 0.00 in0.0 mm 0.00 in0.0 mm 0.00 in0.0 mm
06:15 AM 59.7°F15.4°C 58.1°F14.5°C 94% 4.0 mph WSW6.4 kmh WSW 10.0 mph16.1 kmh 30.01 in1016.3 mb 0.00 in0.0 mm 0.00 in0.0 mm 0.00 in0.0 mm
06:18 AM 59.7°F15.4°C 58.1°F14.5°C 94% 4.0 mph WSW6.4 kmh WSW 10.0 mph16.1 kmh 30.01 in1016.3 mb 0.00 in0.0 mm 0.00 in0.0 mm 0.00 in0.0 mm
06:21 AM 59.7°F15.4°C 58.1°F14.5°C 94% 4.0 mph WSW6.4 kmh WSW 10.0 mph16.1 kmh 30.01 in1016.3 mb 0.00 in0.0 mm 0.00 in0.0 mm 0.00 in0.0 mm
06:24 AM 59.7°F15.4°C 58.1°F14.5°C 94% 4.0 mph WSW6.4 kmh WSW 8.0 mph12.9 kmh 30.01 in1016.3 mb 0.00 in0.0 mm 0.00 in0.0 mm 0.00 in0.0 mm
06:27 AM 59.7°F15.4°C 58.1°F14.5°C 94% 3.0 mph WSW4.8 kmh WSW 8.0 mph12.9 kmh 30.02 in1016.6 mb 0.00 in0.0 mm 0.00 in0.0 mm 0.00 in0.0 mm
06:30 AM 59.7°F15.4°C 58.1°F14.5°C 94% 3.0 mph WSW4.8 kmh WSW 8.0 mph12.9 kmh 30.02 in1016.6 mb 0.00 in0.0 mm 0.00 in0.0 mm 0.00 in0.0 mm
06:33 AM 59.7°F15.4°C 58.1°F14.5°C 94% 3.0 mph WSW4.8 kmh WSW 8.0 mph12.9 kmh 30.02 in1016.6 mb 0.00 in0.0 mm 0.00 in0.0 mm 0.00 in0.0 mm
06:36 AM 59.7°F15.4°C 58.1°F14.5°C 94% 3.0 mph WSW4.8 kmh WSW 8.0 mph12.9 kmh 30.02 in1016.6 mb 0.00 in0.0 mm 0.00 in0.0 mm 0.00 in0.0 mm
06:39 AM 59.7°F15.4°C 58.1°F14.5°C 94% 3.0 mph WSW4.8 kmh WSW 10.0 mph16.1 kmh 30.02 in1016.6 mb 0.00 in0.0 mm 0.00 in0.0 mm 0.00 in0.0 mm
06:42 AM 59.7°F15.4°C 58.1°F14.5°C 94% 4.0 mph W6.4 kmh W 10.0 mph16.1 kmh 30.02 in1016.6 mb 0.00 in0.0 mm 0.00 in0.0 mm 0.00 in0.0 mm
06:45 AM 59.7°F15.4°C 58.1°F14.5°C 94% 4.0 mph W6.4 kmh W 10.0 mph16.1 kmh 30.02 in1016.6 mb 0.00 in0.0 mm 0.00 in0.0 mm 0.00 in0.0 mm
06:48 AM 59.7°F15.4°C 58.1°F14.5°C 94% 4.0 mph W6.4 kmh W 10.0 mph16.1 kmh 30.02 in1016.6 mb 0.00 in0.0 mm 0.00 in0.0 mm 0.00 in0.0 mm
06:51 AM 59.7°F15.4°C 58.1°F14.5°C 94% 5.0 mph W8.0 kmh W 13.0 mph20.9 kmh 30.02 in1016.6 mb 0.00 in0.0 mm 0.00 in0.0 mm 0.00 in0.0 mm
06:54 AM 59.7°F15.4°C 58.1°F14.5°C 94% 4.0 mph W6.4 kmh W 13.0 mph20.9 kmh 30.03 in1016.9 mb 0.00 in0.0 mm 0.00 in0.0 mm 0.00 in0.0 mm
06:57 AM 59.7°F15.4°C 58.1°F14.5°C 94% 4.0 mph WNW6.4 kmh WNW 13.0 mph20.9 kmh 30.03 in1016.9 mb 0.00 in0.0 mm 0.00 in0.0 mm 0.00 in0.0 mm
07:00 AM 59.7°F15.4°C 58.1°F14.5°C 94% 4.0 mph NW6.4 kmh NW 11.0 mph17.7 kmh 30.03 in1016.9 mb 0.00 in0.0 mm 0.00 in0.0 mm 0.00 in0.0 mm
07:03 AM 59.7°F15.4°C 58.1°F14.5°C 94% 4.0 mph NW6.4 kmh NW 14.0 mph22.5 kmh 30.03 in1016.9 mb 0.00 in0.0 mm 0.00 in0.0 mm 0.00 in0.0 mm
07:06 AM 59.7°F15.4°C 58.1°F14.5°C 94% 5.0 mph NW8.0 kmh NW 14.0 mph22.5 kmh 30.04 in1017.3 mb 0.00 in0.0 mm 0.00 in0.0 mm 0.00 in0.0 mm
07:09 AM 59.7°F15.4°C 58.1°F14.5°C 94% 5.0 mph NW8.0 kmh NW 14.0 mph22.5 kmh 30.04 in1017.3 mb 0.00 in0.0 mm 0.00 in0.0 mm 0.00 in0.0 mm
07:12 AM 59.7°F15.4°C 58.1°F14.5°C 94% 5.0 mph NW8.0 kmh NW 11.0 mph17.7 kmh 30.04 in1017.3 mb 0.00 in0.0 mm 0.00 in0.0 mm 0.00 in0.0 mm
07:15 AM 59.7°F15.4°C 58.1°F14.5°C 94% 6.0 mph NW9.7 kmh NW 11.0 mph17.7 kmh 30.04 in1017.3 mb 0.00 in0.0 mm 0.00 in0.0 mm 0.00 in0.0 mm
07:18 AM 59.7°F15.4°C 58.1°F14.5°C 94% 6.0 mph NNW9.7 kmh NNW 15.0 mph24.1 kmh 30.04 in1017.3 mb 0.00 in0.0 mm 0.00 in0.0 mm 0.00 in0.0 mm
07:21 AM 59.7°F15.4°C 58.1°F14.5°C 94% 7.0 mph NNW11.3 kmh NNW 15.0 mph24.1 kmh 30.05 in1017.6 mb 0.00 in0.0 mm 0.00 in0.0 mm 0.00 in0.0 mm
07:24 AM 59.7°F15.4°C 58.1°F14.5°C 94% 8.0 mph NNW12.9 kmh NNW 19.0 mph30.6 kmh 30.05 in1017.6 mb 0.00 in0.0 mm 0.00 in0.0 mm 0.00 in0.0 mm
07:27 AM 59.7°F15.4°C 58.1°F14.5°C 94% 9.0 mph NNW14.5 kmh NNW 19.0 mph30.6 kmh 30.05 in1017.6 mb 0.00 in0.0 mm 0.00 in0.0 mm 0.00 in0.0 mm
07:30 AM 59.7°F15.4°C 58.1°F14.5°C 94% 11.0 mph NNW17.7 kmh NNW 19.0 mph30.6 kmh 30.05 in1017.6 mb 0.00 in0.0 mm 0.00 in0.0 mm 0.00 in0.0 mm
07:33 AM 59.7°F15.4°C 58.1°F14.5°C 94% 11.0 mph NNW17.7 kmh NNW 20.0 mph32.2 kmh 30.05 in1017.6 mb 0.00 in0.0 mm 0.00 in0.0 mm 0.00 in0.0 mm
07:36 AM 59.7°F15.4°C 58.1°F14.5°C 94% 13.0 mph NNW20.9 kmh NNW 23.0 mph37.0 kmh 30.05 in1017.6 mb 0.00 in0.0 mm 0.00 in0.0 mm 0.00 in0.0 mm
07:39 AM 59.7°F15.4°C 58.1°F14.5°C 94% 14.0 mph NNW22.5 kmh NNW 23.0 mph37.0 kmh 30.06 in1017.9 mb 0.00 in0.0 mm 0.00 in0.0 mm 0.00 in0.0 mm
07:42 AM 59.7°F15.4°C 58.1°F14.5°C 94% 14.0 mph NNW22.5 kmh NNW 23.0 mph37.0 kmh 30.06 in1017.9 mb 0.00 in0.0 mm 0.00 in0.0 mm 0.00 in0.0 mm
07:45 AM 59.7°F15.4°C 58.1°F14.5°C 94% 12.0 mph NNW19.3 kmh NNW 21.0 mph33.8 kmh 30.06 in1017.9 mb 0.00 in0.0 mm 0.00 in0.0 mm 0.00 in0.0 mm
07:48 AM 59.7°F15.4°C 58.1°F14.5°C 94% 10.0 mph NNW16.1 kmh NNW 20.0 mph32.2 kmh 30.06 in1017.9 mb 0.00 in0.0 mm 0.00 in0.0 mm 0.00 in0.0 mm
07:51 AM 59.7°F15.4°C 58.1°F14.5°C 94% 10.0 mph NNW16.1 kmh NNW 21.0 mph33.8 kmh 30.06 in1017.9 mb 0.00 in0.0 mm 0.00 in0.0 mm 0.00 in0.0 mm
07:54 AM 59.7°F15.4°C 58.1°F14.5°C 94% 10.0 mph NNW16.1 kmh NNW 21.0 mph33.8 kmh 30.06 in1017.9 mb 0.00 in0.0 mm 0.00 in0.0 mm 0.00 in0.0 mm
07:57 AM 59.7°F15.4°C 58.1°F14.5°C 94% 11.0 mph NNW17.7 kmh NNW 21.0 mph33.8 kmh 30.07 in1018.3 mb 0.00 in0.0 mm 0.00 in0.0 mm 0.00 in0.0 mm
08:00 AM 59.7°F15.4°C 58.1°F14.5°C 94% 11.0 mph NNW17.7 kmh NNW 21.0 mph33.8 kmh 30.07 in1018.3 mb 0.00 in0.0 mm 0.00 in0.0 mm 0.00 in0.0 mm
08:03 AM 59.7°F15.4°C 58.1°F14.5°C 94% 8.0 mph NNW12.9 kmh NNW 17.0 mph27.4 kmh 30.07 in1018.3 mb 0.00 in0.0 mm 0.00 in0.0 mm 0.00 in0.0 mm
08:06 AM 59.7°F15.4°C 58.1°F14.5°C 94% 7.0 mph NNW11.3 kmh NNW 17.0 mph27.4 kmh 30.07 in1018.3 mb 0.00 in0.0 mm 0.00 in0.0 mm 0.00 in0.0 mm
08:09 AM 59.7°F15.4°C 58.1°F14.5°C 94% 8.0 mph NNW12.9 kmh NNW 18.0 mph29.0 kmh 30.07 in1018.3 mb 0.00 in0.0 mm 0.00 in0.0 mm 0.00 in0.0 mm
08:12 AM 59.7°F15.4°C 58.1°F14.5°C 94% 8.0 mph NNW12.9 kmh NNW 18.0 mph29.0 kmh 30.07 in1018.3 mb 0.00 in0.0 mm 0.00 in0.0 mm 0.00 in0.0 mm
08:15 AM 59.7°F15.4°C 58.1°F14.5°C 94% 9.0 mph NNW14.5 kmh NNW 18.0 mph29.0 kmh 30.07 in1018.3 mb 0.00 in0.0 mm 0.00 in0.0 mm 0.00 in0.0 mm
08:18 AM 59.7°F15.4°C 58.1°F14.5°C 94% 8.0 mph NNW12.9 kmh NNW 18.0 mph29.0 kmh 30.07 in1018.3 mb 0.00 in0.0 mm 0.00 in0.0 mm 0.00 in0.0 mm
08:21 AM 59.7°F15.4°C 58.1°F14.5°C 94% 8.0 mph NNW12.9 kmh NNW 18.0 mph29.0 kmh 30.08 in1018.6 mb 0.00 in0.0 mm 0.00 in0.0 mm 0.00 in0.0 mm
08:24 AM 59.7°F15.4°C 58.1°F14.5°C 94% 8.0 mph NNW12.9 kmh NNW 18.0 mph29.0 kmh 30.08 in1018.6 mb 0.00 in0.0 mm 0.00 in0.0 mm 0.00 in0.0 mm
08:27 AM 59.7°F15.4°C 58.1°F14.5°C 94% 6.0 mph NNW9.7 kmh NNW 14.0 mph22.5 kmh 30.08 in1018.6 mb 0.00 in0.0 mm 0.00 in0.0 mm 0.00 in0.0 mm
08:30 AM 59.7°F15.4°C 58.1°F14.5°C 94% 5.0 mph NNW8.0 kmh NNW 13.0 mph20.9 kmh 30.08 in1018.6 mb 0.00 in0.0 mm 0.00 in0.0 mm 0.00 in0.0 mm
08:33 AM 59.7°F15.4°C 58.1°F14.5°C 94% 6.0 mph NNW9.7 kmh NNW 15.0 mph24.1 kmh 30.09 in1019.0 mb 0.00 in0.0 mm 0.00 in0.0 mm 0.00 in0.0 mm
08:36 AM 59.7°F15.4°C 58.1°F14.5°C 94% 6.0 mph NNW9.7 kmh NNW 15.0 mph24.1 kmh 30.09 in1019.0 mb 0.00 in0.0 mm 0.00 in0.0 mm 0.00 in0.0 mm
08:39 AM 59.7°F15.4°C 58.1°F14.5°C 94% 7.0 mph NNW11.3 kmh NNW 15.0 mph24.1 kmh 30.09 in1019.0 mb 0.00 in0.0 mm 0.00 in0.0 mm 0.00 in0.0 mm
08:42 AM 59.7°F15.4°C 58.1°F14.5°C 94% 7.0 mph NNW11.3 kmh NNW 15.0 mph24.1 kmh 30.09 in1019.0 mb 0.00 in0.0 mm 0.00 in0.0 mm 0.00 in0.0 mm
08:45 AM 59.7°F15.4°C 58.1°F14.5°C 94% 7.0 mph NNW11.3 kmh NNW 15.0 mph24.1 kmh 30.09 in1019.0 mb 0.00 in0.0 mm 0.00 in0.0 mm 0.00 in0.0 mm
08:48 AM 59.7°F15.4°C 58.1°F14.5°C 94% 8.0 mph NNW12.9 kmh NNW 20.0 mph32.2 kmh 30.09 in1019.0 mb 0.00 in0.0 mm 0.00 in0.0 mm 0.00 in0.0 mm
08:51 AM 59.7°F15.4°C 58.1°F14.5°C 94% 9.0 mph NNW14.5 kmh NNW 20.0 mph32.2 kmh 30.09 in1019.0 mb 0.00 in0.0 mm 0.00 in0.0 mm 0.00 in0.0 mm
08:54 AM 59.7°F15.4°C 58.1°F14.5°C 94% 11.0 mph NNW17.7 kmh NNW 20.0 mph32.2 kmh 30.09 in1019.0 mb 0.00 in0.0 mm 0.00 in0.0 mm 0.00 in0.0 mm
08:57 AM 59.7°F15.4°C 58.1°F14.5°C 94% 12.0 mph NNW19.3 kmh NNW 20.0 mph32.2 kmh 30.09 in1019.0 mb 0.00 in0.0 mm 0.00 in0.0 mm 0.00 in0.0 mm
09:00 AM 59.7°F15.4°C 58.1°F14.5°C 94% 10.0 mph NNW16.1 kmh NNW 20.0 mph32.2 kmh 30.09 in1019.0 mb 0.00 in0.0 mm 0.00 in0.0 mm 0.00 in0.0 mm
09:03 AM 59.7°F15.4°C 58.1°F14.5°C 94% 11.0 mph NNW17.7 kmh NNW 20.0 mph32.2 kmh 30.09 in1019.0 mb 0.00 in0.0 mm 0.00 in0.0 mm 0.00 in0.0 mm
09:06 AM 59.7°F15.4°C 58.1°F14.5°C 94% 10.0 mph NNW16.1 kmh NNW 18.0 mph29.0 kmh 30.09 in1019.0 mb 0.00 in0.0 mm 0.00 in0.0 mm 0.00 in0.0 mm
09:09 AM 59.7°F15.4°C 58.1°F14.5°C 94% 11.0 mph NNW17.7 kmh NNW 23.0 mph37.0 kmh 30.09 in1019.0 mb 0.00 in0.0 mm 0.00 in0.0 mm 0.00 in0.0 mm
09:12 AM 59.7°F15.4°C 58.1°F14.5°C 94% 12.0 mph NNW19.3 kmh NNW 23.0 mph37.0 kmh 30.10 in1019.3 mb 0.00 in0.0 mm 0.00 in0.0 mm 0.00 in0.0 mm
09:15 AM 59.7°F15.4°C 58.1°F14.5°C 94% 12.0 mph NNW19.3 kmh NNW 23.0 mph37.0 kmh 30.10 in1019.3 mb 0.00 in0.0 mm 0.00 in0.0 mm 0.00 in0.0 mm
09:18 AM 59.7°F15.4°C 58.1°F14.5°C 94% 11.0 mph NNW17.7 kmh NNW 22.0 mph35.4 kmh 30.10 in1019.3 mb 0.00 in0.0 mm 0.00 in0.0 mm 0.00 in0.0 mm
09:21 AM 59.7°F15.4°C 58.1°F14.5°C 94% 10.0 mph NNW16.1 kmh NNW 22.0 mph35.4 kmh 30.11 in1019.6 mb 0.00 in0.0 mm 0.00 in0.0 mm 0.00 in0.0 mm
09:24 AM 59.7°F15.4°C 58.1°F14.5°C 94% 9.0 mph NNW14.5 kmh NNW 18.0 mph29.0 kmh 30.11 in1019.6 mb 0.00 in0.0 mm 0.00 in0.0 mm 0.00 in0.0 mm
09:27 AM 59.7°F15.4°C 58.1°F14.5°C 94% 8.0 mph NNW12.9 kmh NNW 16.0 mph25.7 kmh 30.11 in1019.6 mb 0.00 in0.0 mm 0.00 in0.0 mm 0.00 in0.0 mm
09:30 AM 59.7°F15.4°C 58.1°F14.5°C 94% 8.0 mph NNW12.9 kmh NNW 17.0 mph27.4 kmh 30.11 in1019.6 mb 0.00 in0.0 mm 0.00 in0.0 mm 0.00 in0.0 mm
09:33 AM 59.7°F15.4°C 58.1°F14.5°C 94% 9.0 mph NNW14.5 kmh NNW 17.0 mph27.4 kmh 30.11 in1019.6 mb 0.00 in0.0 mm 0.00 in0.0 mm 0.00 in0.0 mm
09:36 AM 59.7°F15.4°C 58.1°F14.5°C 94% 10.0 mph NNW16.1 kmh NNW 18.0 mph29.0 kmh 30.11 in1019.6 mb 0.00 in0.0 mm 0.00 in0.0 mm 0.00 in0.0 mm
09:39 AM 59.7°F15.4°C 58.1°F14.5°C 94% 10.0 mph NNW16.1 kmh NNW 20.0 mph32.2 kmh 30.11 in1019.6 mb 0.00 in0.0 mm 0.00 in0.0 mm 0.00 in0.0 mm
09:42 AM 59.7°F15.4°C 58.1°F14.5°C 94% 11.0 mph NNW17.7 kmh NNW 20.0 mph32.2 kmh 30.11 in1019.6 mb 0.00 in0.0 mm 0.00 in0.0 mm 0.00 in0.0 mm
09:45 AM 59.7°F15.4°C 58.1°F14.5°C 94% 11.0 mph N17.7 kmh N 20.0 mph32.2 kmh 30.11 in1019.6 mb 0.00 in0.0 mm 0.00 in0.0 mm 0.00 in0.0 mm
09:48 AM 59.7°F15.4°C 58.1°F14.5°C 94% 10.0 mph NNW16.1 kmh NNW 18.0 mph29.0 kmh 30.11 in1019.6 mb 0.00 in0.0 mm 0.00 in0.0 mm 0.00 in0.0 mm
09:51 AM 59.7°F15.4°C 58.1°F14.5°C 94% 9.0 mph NNW14.5 kmh NNW 18.0 mph29.0 kmh 30.11 in1019.6 mb 0.00 in0.0 mm 0.00 in0.0 mm 0.00 in0.0 mm
09:54 AM 59.7°F15.4°C 58.1°F14.5°C 94% 9.0 mph NNW14.5 kmh NNW 18.0 mph29.0 kmh 30.11 in1019.6 mb 0.00 in0.0 mm 0.00 in0.0 mm 0.00 in0.0 mm
09:57 AM 59.7°F15.4°C 58.1°F14.5°C 94% 10.0 mph NNW16.1 kmh NNW 21.0 mph33.8 kmh 30.11 in1019.6 mb 0.00 in0.0 mm 0.00 in0.0 mm 0.00 in0.0 mm
10:00 AM 59.7°F15.4°C 58.1°F14.5°C 94% 10.0 mph NNW16.1 kmh NNW 21.0 mph33.8 kmh 30.11 in1019.6 mb 0.00 in0.0 mm 0.00 in0.0 mm 0.00 in0.0 mm
10:03 AM 59.7°F15.4°C 58.1°F14.5°C 94% 11.0 mph NNW17.7 kmh NNW 21.0 mph33.8 kmh 30.12 in1020.0 mb 0.00 in0.0 mm 0.00 in0.0 mm 0.00 in0.0 mm
10:06 AM 59.7°F15.4°C 58.1°F14.5°C 94% 12.0 mph NNW19.3 kmh NNW 23.0 mph37.0 kmh 30.12 in1020.0 mb 0.00 in0.0 mm 0.00 in0.0 mm 0.00 in0.0 mm
10:09 AM 59.0°F15.0°C 53.8°F12.1°C 83% 13.0 mph NNW20.9 kmh NNW 23.0 mph37.0 kmh 30.12 in1020.0 mb 0.00 in0.0 mm 0.00 in0.0 mm 0.00 in0.0 mm
10:12 AM 58.5°F14.7°C 52.9°F11.6°C 82% 15.0 mph NNW24.1 kmh NNW 24.0 mph38.6 kmh 30.12 in1020.0 mb 0.00 in0.0 mm 0.00 in0.0 mm 0.00 in0.0 mm
10:15 AM 57.7°F14.3°C 52.3°F11.3°C 82% 15.0 mph N24.1 kmh N 24.0 mph38.6 kmh 30.12 in1020.0 mb 0.00 in0.0 mm 0.00 in0.0 mm 0.00 in0.0 mm
10:18 AM 57.4°F14.1°C 52.0°F11.1°C 82% 16.0 mph N25.7 kmh N 24.0 mph38.6 kmh 30.12 in1020.0 mb 0.00 in0.0 mm 0.00 in0.0 mm 0.00 in0.0 mm
10:21 AM 57.4°F14.1°C 51.8°F11.0°C 82% 14.0 mph N22.5 kmh N 23.0 mph37.0 kmh 30.13 in1020.3 mb 0.00 in0.0 mm 0.00 in0.0 mm 0.00 in0.0 mm
10:24 AM 57.7°F14.3°C 52.9°F11.6°C 84% 13.0 mph NNW20.9 kmh NNW 23.0 mph37.0 kmh 30.13 in1020.3 mb 0.00 in0.0 mm 0.00 in0.0 mm 0.00 in0.0 mm
10:27 AM 58.5°F14.7°C 53.2°F11.8°C 83% 12.0 mph NNW19.3 kmh NNW 20.0 mph32.2 kmh 30.13 in1020.3 mb 0.00 in0.0 mm 0.00 in0.0 mm 0.00 in0.0 mm
10:30 AM 59.0°F15.0°C 53.6°F12.0°C 82% 11.0 mph NNW17.7 kmh NNW 20.0 mph32.2 kmh 30.13 in1020.3 mb 0.00 in0.0 mm 0.00 in0.0 mm 0.00 in0.0 mm
10:33 AM 59.2°F15.1°C 53.8°F12.1°C 82% 10.0 mph NNW16.1 kmh NNW 19.0 mph30.6 kmh 30.13 in1020.3 mb 0.00 in0.0 mm 0.00 in0.0 mm 0.00 in0.0 mm
10:36 AM 59.5°F15.3°C 53.6°F12.0°C 81% 10.0 mph NNW16.1 kmh NNW 17.0 mph27.4 kmh 30.13 in1020.3 mb 0.00 in0.0 mm 0.00 in0.0 mm 0.00 in0.0 mm
10:39 AM 59.5°F15.3°C 53.2°F11.8°C 80% 11.0 mph NNW17.7 kmh NNW 17.0 mph27.4 kmh 30.13 in1020.3 mb 0.00 in0.0 mm 0.00 in0.0 mm 0.00 in0.0 mm
10:42 AM 59.4°F15.2°C 52.5°F11.4°C 78% 11.0 mph NNW17.7 kmh NNW 23.0 mph37.0 kmh 30.13 in1020.3 mb 0.00 in0.0 mm 0.00 in0.0 mm 0.00 in0.0 mm
10:45 AM 59.2°F15.1°C 52.3°F11.3°C 78% 12.0 mph NNW19.3 kmh NNW 23.0 mph37.0 kmh 30.13 in1020.3 mb 0.00 in0.0 mm 0.00 in0.0 mm 0.00 in0.0 mm
10:48 AM 59.0°F15.0°C 52.2°F11.2°C 78% 12.0 mph N19.3 kmh N 23.0 mph37.0 kmh 30.14 in1020.7 mb 0.00 in0.0 mm 0.00 in0.0 mm 0.00 in0.0 mm
10:51 AM 58.8°F14.9°C 52.0°F11.1°C 78% 12.0 mph N19.3 kmh N 21.0 mph33.8 kmh 30.14 in1020.7 mb 0.00 in0.0 mm 0.00 in0.0 mm 0.00 in0.0 mm
10:54 AM 58.8°F14.9°C 52.3°F11.3°C 79% 11.0 mph N17.7 kmh N 18.0 mph29.0 kmh 30.14 in1020.7 mb 0.00 in0.0 mm 0.00 in0.0 mm 0.00 in0.0 mm
10:57 AM 58.8°F14.9°C 52.3°F11.3°C 79% 11.0 mph N17.7 kmh N 18.0 mph29.0 kmh 30.14 in1020.7 mb 0.00 in0.0 mm 0.00 in0.0 mm 0.00 in0.0 mm
11:00 AM 59.0°F15.0°C 52.5°F11.4°C 79% 10.0 mph NNW16.1 kmh NNW 18.0 mph29.0 kmh 30.14 in1020.7 mb 0.00 in0.0 mm 0.00 in0.0 mm 0.00 in0.0 mm
11:03 AM 59.2°F15.1°C 52.7°F11.5°C 79% 10.0 mph NNW16.1 kmh NNW 18.0 mph29.0 kmh 30.14 in1020.7 mb 0.00 in0.0 mm 0.00 in0.0 mm 0.00 in0.0 mm
11:06 AM 59.2°F15.1°C 52.2°F11.2°C 78% 10.0 mph N16.1 kmh N 18.0 mph29.0 kmh 30.14 in1020.7 mb 0.00 in0.0 mm 0.00 in0.0 mm 0.00 in0.0 mm
11:09 AM 58.8°F14.9°C 52.0°F11.1°C 78% 11.0 mph N17.7 kmh N 18.0 mph29.0 kmh 30.15 in1021.0 mb 0.00 in0.0 mm 0.00 in0.0 mm 0.00 in0.0 mm
11:12 AM 58.8°F14.9°C 52.0°F11.1°C 78% 11.0 mph N17.7 kmh N 18.0 mph29.0 kmh 30.15 in1021.0 mb 0.00 in0.0 mm 0.00 in0.0 mm 0.00 in0.0 mm
11:15 AM 58.8°F14.9°C 52.3°F11.3°C 79% 11.0 mph N17.7 kmh N 18.0 mph29.0 kmh 30.15 in1021.0 mb 0.00 in0.0 mm 0.00 in0.0 mm 0.00 in0.0 mm
11:18 AM 59.0°F15.0°C 52.2°F11.2°C 78% 10.0 mph N16.1 kmh N 18.0 mph29.0 kmh 30.15 in1021.0 mb 0.00 in0.0 mm 0.00 in0.0 mm 0.00 in0.0 mm
11:21 AM 59.2°F15.1°C 52.3°F11.3°C 78% 10.0 mph N16.1 kmh N 17.0 mph27.4 kmh 30.15 in1021.0 mb 0.00 in0.0 mm 0.00 in0.0 mm 0.00 in0.0 mm
11:24 AM 59.2°F15.1°C 52.0°F11.1°C 77% 11.0 mph N17.7 kmh N 18.0 mph29.0 kmh 30.15 in1021.0 mb 0.00 in0.0 mm 0.00 in0.0 mm 0.00 in0.0 mm
11:27 AM 59.2°F15.1°C 52.0°F11.1°C 77% 11.0 mph NNW17.7 kmh NNW 18.0 mph29.0 kmh 30.15 in1021.0 mb 0.00 in0.0 mm 0.00 in0.0 mm 0.00 in0.0 mm
11:30 AM 59.2°F15.1°C 51.6°F10.9°C 76% 11.0 mph NNW17.7 kmh NNW 18.0 mph29.0 kmh 30.15 in1021.0 mb 0.00 in0.0 mm 0.00 in0.0 mm 0.00 in0.0 mm
11:33 AM 59.4°F15.2°C 51.8°F11.0°C 76% 11.0 mph NNW17.7 kmh NNW 18.0 mph29.0 kmh 30.15 in1021.0 mb 0.00 in0.0 mm 0.00 in0.0 mm 0.00 in0.0 mm
11:36 AM 59.5°F15.3°C 52.3°F11.3°C 77% 10.0 mph NNW16.1 kmh NNW 18.0 mph29.0 kmh 30.15 in1021.0 mb 0.00 in0.0 mm 0.00 in0.0 mm 0.00 in0.0 mm
11:39 AM 59.5°F15.3°C 52.0°F11.1°C 76% 9.0 mph NNW14.5 kmh NNW 19.0 mph30.6 kmh 30.15 in1021.0 mb 0.00 in0.0 mm 0.00 in0.0 mm 0.00 in0.0 mm
11:42 AM 59.5°F15.3°C 52.0°F11.1°C 76% 11.0 mph NNW17.7 kmh NNW 22.0 mph35.4 kmh 30.15 in1021.0 mb 0.00 in0.0 mm 0.00 in0.0 mm 0.00 in0.0 mm
11:45 AM 59.4°F15.2°C 51.8°F11.0°C 76% 12.0 mph NNW19.3 kmh NNW 22.0 mph35.4 kmh 30.16 in1021.3 mb 0.00 in0.0 mm 0.00 in0.0 mm 0.00 in0.0 mm
11:48 AM 59.4°F15.2°C 51.8°F11.0°C 76% 12.0 mph NNW19.3 kmh NNW 22.0 mph35.4 kmh 30.16 in1021.3 mb 0.00 in0.0 mm 0.00 in0.0 mm 0.00 in0.0 mm
11:51 AM 59.4°F15.2°C 52.2°F11.2°C 77% 10.0 mph NNW16.1 kmh NNW 21.0 mph33.8 kmh 30.16 in1021.3 mb 0.00 in0.0 mm 0.00 in0.0 mm 0.00 in0.0 mm
11:54 AM 59.7°F15.4°C 52.2°F11.2°C 76% 10.0 mph NNW16.1 kmh NNW 18.0 mph29.0 kmh 30.16 in1021.3 mb 0.00 in0.0 mm 0.00 in0.0 mm 0.00 in0.0 mm
11:57 AM 59.7°F15.4°C 51.8°F11.0°C 75% 10.0 mph NNW16.1 kmh NNW 21.0 mph33.8 kmh 30.16 in1021.3 mb 0.00 in0.0 mm 0.00 in0.0 mm 0.00 in0.0 mm
12:00 PM 59.7°F15.4°C 51.8°F11.0°C 75% 11.0 mph NNW17.7 kmh NNW 21.0 mph33.8 kmh 30.16 in1021.3 mb 0.00 in0.0 mm 0.00 in0.0 mm 0.00 in0.0 mm
12:03 PM 59.5°F15.3°C 51.6°F10.9°C 75% 11.0 mph NNW17.7 kmh NNW 21.0 mph33.8 kmh 30.16 in1021.3 mb 0.00 in0.0 mm 0.00 in0.0 mm 0.00 in0.0 mm
12:06 PM 59.5°F15.3°C 51.6°F10.9°C 75% 10.0 mph NNW16.1 kmh NNW 16.0 mph25.7 kmh 30.16 in1021.3 mb 0.01 in0.3 mm 0.20 in5.1 mm 0.01 in0.3 mm
12:09 PM 59.7°F15.4°C 52.2°F11.2°C 76% 10.0 mph NNW16.1 kmh NNW 16.0 mph25.7 kmh 30.16 in1021.3 mb 0.01 in0.3 mm 0.00 in0.0 mm 0.01 in0.3 mm
12:12 PM 60.3°F15.7°C 52.5°F11.4°C 76% 10.0 mph NNW16.1 kmh NNW 18.0 mph29.0 kmh 30.16 in1021.3 mb 0.01 in0.3 mm 0.00 in0.0 mm 0.01 in0.3 mm
12:15 PM 60.4°F15.8°C 51.3°F10.7°C 72% 11.0 mph NNW17.7 kmh NNW 22.0 mph35.4 kmh 30.16 in1021.3 mb 0.01 in0.3 mm 0.00 in0.0 mm 0.01 in0.3 mm
12:18 PM 60.4°F15.8°C 51.6°F10.9°C 73% 12.0 mph NNW19.3 kmh NNW 22.0 mph35.4 kmh 30.16 in1021.3 mb 0.01 in0.3 mm 0.00 in0.0 mm 0.01 in0.3 mm
12:21 PM 60.4°F15.8°C 51.8°F11.0°C 73% 12.0 mph NNW19.3 kmh NNW 22.0 mph35.4 kmh 30.16 in1021.3 mb 0.01 in0.3 mm 0.00 in0.0 mm 0.01 in0.3 mm
12:24 PM 60.4°F15.8°C 51.8°F11.0°C 73% 12.0 mph NNW19.3 kmh NNW 22.0 mph35.4 kmh 30.17 in1021.7 mb 0.01 in0.3 mm 0.00 in0.0 mm 0.01 in0.3 mm
12:27 PM 60.3°F15.7°C 51.1°F10.6°C 72% 12.0 mph N19.3 kmh N 22.0 mph35.4 kmh 30.17 in1021.7 mb 0.01 in0.3 mm 0.00 in0.0 mm 0.01 in0.3 mm
12:30 PM 59.5°F15.3°C 50.5°F10.3°C 72% 13.0 mph N20.9 kmh N 22.0 mph35.4 kmh 30.17 in1021.7 mb 0.01 in0.3 mm 0.00 in0.0 mm 0.01 in0.3 mm
12:33 PM 58.8°F14.9°C 50.5°F10.3°C 74% 12.0 mph N19.3 kmh N 21.0 mph33.8 kmh 30.17 in1021.7 mb 0.01 in0.3 mm 0.00 in0.0 mm 0.01 in0.3 mm
12:36 PM 58.6°F14.8°C 50.7°F10.4°C 75% 12.0 mph N19.3 kmh N 21.0 mph33.8 kmh 30.17 in1021.7 mb 0.01 in0.3 mm 0.00 in0.0 mm 0.01 in0.3 mm
12:39 PM 58.6°F14.8°C 51.1°F10.6°C 76% 11.0 mph N17.7 kmh N 19.0 mph30.6 kmh 30.17 in1021.7 mb 0.01 in0.3 mm 0.00 in0.0 mm 0.01 in0.3 mm
12:42 PM 58.6°F14.8°C 51.1°F10.6°C 76% 10.0 mph N16.1 kmh N 19.0 mph30.6 kmh 30.17 in1021.7 mb 0.01 in0.3 mm 0.00 in0.0 mm 0.01 in0.3 mm
12:45 PM 58.8°F14.9°C 51.3°F10.7°C 76% 9.0 mph N14.5 kmh N 17.0 mph27.4 kmh 30.17 in1021.7 mb 0.01 in0.3 mm 0.00 in0.0 mm 0.01 in0.3 mm
12:48 PM 59.2°F15.1°C 52.0°F11.1°C 77% 8.0 mph N12.9 kmh N 16.0 mph25.7 kmh 30.17 in1021.7 mb 0.01 in0.3 mm 0.00 in0.0 mm 0.01 in0.3 mm
12:51 PM 59.7°F15.4°C 52.5°F11.4°C 77% 8.0 mph N12.9 kmh N 16.0 mph25.7 kmh 30.17 in1021.7 mb 0.01 in0.3 mm 0.00 in0.0 mm 0.01 in0.3 mm
12:54 PM 60.1°F15.6°C 52.5°F11.4°C 76% 8.0 mph N12.9 kmh N 16.0 mph25.7 kmh 30.17 in1021.7 mb 0.01 in0.3 mm 0.00 in0.0 mm 0.01 in0.3 mm
12:57 PM 60.4°F15.8°C 51.6°F10.9°C 73% 9.0 mph N14.5 kmh N 19.0 mph30.6 kmh 30.17 in1021.7 mb 0.01 in0.3 mm 0.00 in0.0 mm 0.01 in0.3 mm
01:00 PM 60.6°F15.9°C 52.0°F11.1°C 73% 11.0 mph N17.7 kmh N 20.0 mph32.2 kmh 30.17 in1021.7 mb 0.01 in0.3 mm 0.00 in0.0 mm 0.01 in0.3 mm
01:03 PM 61.0°F16.1°C 51.4°F10.8°C 71% 12.0 mph N19.3 kmh N 20.0 mph32.2 kmh 30.17 in1021.7 mb 0.01 in0.3 mm 0.00 in0.0 mm 0.01 in0.3 mm
01:06 PM 61.0°F16.1°C 50.7°F10.4°C 69% 11.0 mph N17.7 kmh N 20.0 mph32.2 kmh 30.18 in1022.0 mb 0.00 in0.0 mm 0.00 in0.0 mm 0.01 in0.3 mm
01:09 PM 61.3°F16.3°C 51.8°F11.0°C 71% 11.0 mph N17.7 kmh N 17.0 mph27.4 kmh 30.18 in1022.0 mb 0.00 in0.0 mm 0.00 in0.0 mm 0.01 in0.3 mm
01:12 PM 61.5°F16.4°C 51.3°F10.7°C 69% 11.0 mph N17.7 kmh N 18.0 mph29.0 kmh 30.18 in1022.0 mb 0.00 in0.0 mm 0.00 in0.0 mm 0.01 in0.3 mm
01:15 PM 61.7°F16.5°C 51.4°F10.8°C 69% 10.0 mph N16.1 kmh N 18.0 mph29.0 kmh 30.18 in1022.0 mb 0.00 in0.0 mm 0.00 in0.0 mm 0.01 in0.3 mm
01:18 PM 62.1°F16.7°C 51.4°F10.8°C 68% 9.0 mph N14.5 kmh N 18.0 mph29.0 kmh 30.18 in1022.0 mb 0.00 in0.0 mm 0.00 in0.0 mm 0.01 in0.3 mm
01:21 PM 62.4°F16.9°C 52.2°F11.2°C 69% 9.0 mph NNW14.5 kmh NNW 17.0 mph27.4 kmh 30.18 in1022.0 mb 0.00 in0.0 mm 0.00 in0.0 mm 0.01 in0.3 mm
01:24 PM 63.0°F17.2°C 52.2°F11.2°C 68% 8.0 mph NNW12.9 kmh NNW 17.0 mph27.4 kmh 30.17 in1021.7 mb 0.00 in0.0 mm 0.00 in0.0 mm 0.01 in0.3 mm
01:27 PM 63.3°F17.4°C 52.9°F11.6°C 69% 7.0 mph NNW11.3 kmh NNW 17.0 mph27.4 kmh 30.17 in1021.7 mb 0.00 in0.0 mm 0.00 in0.0 mm 0.01 in0.3 mm
01:30 PM 63.5°F17.5°C 52.0°F11.1°C 66% 7.0 mph NNW11.3 kmh NNW 16.0 mph25.7 kmh 30.17 in1021.7 mb 0.00 in0.0 mm 0.00 in0.0 mm 0.01 in0.3 mm
01:33 PM 63.5°F17.5°C 52.0°F11.1°C 66% 7.0 mph NNW11.3 kmh NNW 16.0 mph25.7 kmh 30.17 in1021.7 mb 0.00 in0.0 mm 0.00 in0.0 mm 0.01 in0.3 mm
01:36 PM 63.7°F17.6°C 52.2°F11.2°C 66% 7.0 mph NNW11.3 kmh NNW 16.0 mph25.7 kmh 30.17 in1021.7 mb 0.00 in0.0 mm 0.00 in0.0 mm 0.01 in0.3 mm
01:39 PM 64.0°F17.8°C 52.0°F11.1°C 65% 7.0 mph NNW11.3 kmh NNW 18.0 mph29.0 kmh 30.18 in1022.0 mb 0.00 in0.0 mm 0.00 in0.0 mm 0.01 in0.3 mm
01:42 PM 64.0°F17.8°C 52.2°F11.2°C 65% 8.0 mph NNW12.9 kmh NNW 22.0 mph35.4 kmh 30.18 in1022.0 mb 0.00 in0.0 mm 0.00 in0.0 mm 0.01 in0.3 mm
01:45 PM 64.0°F17.8°C 51.6°F10.9°C 64% 9.0 mph NNW14.5 kmh NNW 22.0 mph35.4 kmh 30.18 in1022.0 mb 0.00 in0.0 mm 0.00 in0.0 mm 0.01 in0.3 mm
01:48 PM 63.7°F17.6°C 51.3°F10.7°C 64% 10.0 mph NNW16.1 kmh NNW 22.0 mph35.4 kmh 30.18 in1022.0 mb 0.00 in0.0 mm 0.00 in0.0 mm 0.01 in0.3 mm
01:51 PM 63.3°F17.4°C 50.9°F10.5°C 64% 9.0 mph NNW14.5 kmh NNW 20.0 mph32.2 kmh 30.18 in1022.0 mb 0.00 in0.0 mm 0.00 in0.0 mm 0.01 in0.3 mm
01:54 PM 63.1°F17.3°C 50.7°F10.4°C 64% 10.0 mph NNW16.1 kmh NNW 20.0 mph32.2 kmh 30.18 in1022.0 mb 0.00 in0.0 mm 0.00 in0.0 mm 0.01 in0.3 mm
01:57 PM 63.1°F17.3°C 51.1°F10.6°C 65% 11.0 mph NNW17.7 kmh NNW 20.0 mph32.2 kmh 30.18 in1022.0 mb 0.00 in0.0 mm 0.00 in0.0 mm 0.01 in0.3 mm
02:00 PM 63.3°F17.4°C 51.4°F10.8°C 65% 9.0 mph NNW14.5 kmh NNW 20.0 mph32.2 kmh 30.18 in1022.0 mb 0.00 in0.0 mm 0.00 in0.0 mm 0.01 in0.3 mm
02:03 PM 63.9°F17.7°C 51.1°F10.6°C 63% 8.0 mph NNW12.9 kmh NNW 19.0 mph30.6 kmh 30.18 in1022.0 mb 0.00 in0.0 mm 0.00 in0.0 mm 0.01 in0.3 mm
02:06 PM 64.0°F17.8°C 52.2°F11.2°C 65% 7.0 mph NNW11.3 kmh NNW 15.0 mph24.1 kmh 30.18 in1022.0 mb 0.00 in0.0 mm 0.00 in0.0 mm 0.01 in0.3 mm
02:09 PM 64.0°F17.8°C 50.7°F10.4°C 62% 8.0 mph NNW12.9 kmh NNW 16.0 mph25.7 kmh 30.18 in1022.0 mb 0.00 in0.0 mm 0.00 in0.0 mm 0.01 in0.3 mm
02:12 PM 63.7°F17.6°C 51.3°F10.7°C 64% 9.0 mph NNW14.5 kmh NNW 16.0 mph25.7 kmh 30.18 in1022.0 mb 0.00 in0.0 mm 0.00 in0.0 mm 0.01 in0.3 mm
02:15 PM 63.9°F17.7°C 51.4°F10.8°C 64% 8.0 mph NNW12.9 kmh NNW 16.0 mph25.7 kmh 30.18 in1022.0 mb 0.00 in0.0 mm 0.00 in0.0 mm 0.01 in0.3 mm
02:18 PM 64.2°F17.9°C 51.3°F10.7°C 63% 8.0 mph NNW12.9 kmh NNW 16.0 mph25.7 kmh 30.18 in1022.0 mb 0.00 in0.0 mm 0.00 in0.0 mm 0.01 in0.3 mm
02:21 PM 64.0°F17.8°C 50.7°F10.4°C 62% 8.0 mph NNW12.9 kmh NNW 17.0 mph27.4 kmh 30.18 in1022.0 mb 0.00 in0.0 mm 0.00 in0.0 mm 0.01 in0.3 mm
02:24 PM 63.9°F17.7°C 50.2°F10.1°C 61% 10.0 mph NNW16.1 kmh NNW 17.0 mph27.4 kmh 30.18 in1022.0 mb 0.00 in0.0 mm 0.00 in0.0 mm 0.01 in0.3 mm
02:27 PM 63.7°F17.6°C 52.2°F11.2°C 66% 10.0 mph N16.1 kmh N 17.0 mph27.4 kmh 30.18 in1022.0 mb 0.00 in0.0 mm 0.00 in0.0 mm 0.01 in0.3 mm
02:30 PM 63.7°F17.6°C 50.7°F10.4°C 63% 11.0 mph N17.7 kmh N 18.0 mph29.0 kmh 30.18 in1022.0 mb 0.00 in0.0 mm 0.00 in0.0 mm 0.01 in0.3 mm
02:33 PM 63.3°F17.4°C 50.5°F10.3°C 63% 11.0 mph N17.7 kmh N 21.0 mph33.8 kmh 30.18 in1022.0 mb 0.00 in0.0 mm 0.00 in0.0 mm 0.01 in0.3 mm
02:36 PM 63.1°F17.3°C 50.4°F10.2°C 63% 11.0 mph NNW17.7 kmh NNW 21.0 mph33.8 kmh 30.18 in1022.0 mb 0.00 in0.0 mm 0.00 in0.0 mm 0.01 in0.3 mm
02:39 PM 63.3°F17.4°C 49.6°F9.8°C 61% 12.0 mph N19.3 kmh N 21.0 mph33.8 kmh 30.18 in1022.0 mb 0.00 in0.0 mm 0.00 in0.0 mm 0.01 in0.3 mm
02:42 PM 63.5°F17.5°C 50.2°F10.1°C 62% 11.0 mph N17.7 kmh N 21.0 mph33.8 kmh 30.18 in1022.0 mb 0.00 in0.0 mm 0.00 in0.0 mm 0.01 in0.3 mm
02:45 PM 63.5°F17.5°C 49.3°F9.6°C 60% 10.0 mph N16.1 kmh N 19.0 mph30.6 kmh 30.18 in1022.0 mb 0.00 in0.0 mm 0.00 in0.0 mm 0.01 in0.3 mm
02:48 PM 63.5°F17.5°C 49.8°F9.9°C 61% 10.0 mph NNW16.1 kmh NNW 19.0 mph30.6 kmh 30.18 in1022.0 mb 0.00 in0.0 mm 0.00 in0.0 mm 0.01 in0.3 mm
02:51 PM 63.5°F17.5°C 49.8°F9.9°C 61% 11.0 mph NNW17.7 kmh NNW 20.0 mph32.2 kmh 30.18 in1022.0 mb 0.00 in0.0 mm 0.00 in0.0 mm 0.01 in0.3 mm
02:54 PM 63.3°F17.4°C 50.2°F10.1°C 62% 11.0 mph N17.7 kmh N 20.0 mph32.2 kmh 30.19 in1022.4 mb 0.00 in0.0 mm 0.00 in0.0 mm 0.01 in0.3 mm
02:57 PM 63.1°F17.3°C 50.4°F10.2°C 63% 11.0 mph NNW17.7 kmh NNW 20.0 mph32.2 kmh 30.19 in1022.4 mb 0.00 in0.0 mm 0.00 in0.0 mm 0.01 in0.3 mm
03:00 PM 63.0°F17.2°C 50.2°F10.1°C 63% 12.0 mph NNW19.3 kmh NNW 20.0 mph32.2 kmh 30.18 in1022.0 mb 0.00 in0.0 mm 0.00 in0.0 mm 0.01 in0.3 mm
03:03 PM 63.0°F17.2°C 50.5°F10.3°C 64% 10.0 mph NNW16.1 kmh NNW 18.0 mph29.0 kmh 30.19 in1022.4 mb 0.00 in0.0 mm 0.00 in0.0 mm 0.01 in0.3 mm
03:06 PM 63.3°F17.4°C 51.3°F10.7°C 65% 9.0 mph NNW14.5 kmh NNW 18.0 mph29.0 kmh 30.19 in1022.4 mb 0.00 in0.0 mm 0.00 in0.0 mm 0.01 in0.3 mm
03:09 PM 63.5°F17.5°C 50.2°F10.1°C 62% 7.0 mph NNW11.3 kmh NNW 14.0 mph22.5 kmh 30.19 in1022.4 mb 0.00 in0.0 mm 0.00 in0.0 mm 0.01 in0.3 mm
03:12 PM 63.5°F17.5°C 49.8°F9.9°C 61% 8.0 mph NNW12.9 kmh NNW 15.0 mph24.1 kmh 30.19 in1022.4 mb 0.00 in0.0 mm 0.00 in0.0 mm 0.01 in0.3 mm
03:15 PM 63.5°F17.5°C 50.2°F10.1°C 62% 8.0 mph NNW12.9 kmh NNW 15.0 mph24.1 kmh 30.19 in1022.4 mb 0.00 in0.0 mm 0.00 in0.0 mm 0.01 in0.3 mm
03:18 PM 63.3°F17.4°C 50.5°F10.3°C 63% 9.0 mph NNW14.5 kmh NNW 20.0 mph32.2 kmh 30.19 in1022.4 mb 0.00 in0.0 mm 0.00 in0.0 mm 0.01 in0.3 mm
03:21 PM 63.3°F17.4°C 49.6°F9.8°C 61% 10.0 mph NNW16.1 kmh NNW 20.0 mph32.2 kmh 30.19 in1022.4 mb 0.00 in0.0 mm 0.00 in0.0 mm 0.01 in0.3 mm
03:24 PM 63.1°F17.3°C 49.5°F9.7°C 61% 11.0 mph NNW17.7 kmh NNW 20.0 mph32.2 kmh 30.19 in1022.4 mb 0.00 in0.0 mm 0.00 in0.0 mm 0.01 in0.3 mm
03:27 PM 63.0°F17.2°C 49.8°F9.9°C 62% 12.0 mph NNW19.3 kmh NNW 20.0 mph32.2 kmh 30.20 in1022.7 mb 0.00 in0.0 mm 0.00 in0.0 mm 0.01 in0.3 mm
03:30 PM 63.0°F17.2°C 49.3°F9.6°C 61% 10.0 mph NNW16.1 kmh NNW 17.0 mph27.4 kmh 30.19 in1022.4 mb 0.00 in0.0 mm 0.00 in0.0 mm 0.01 in0.3 mm
03:33 PM 63.0°F17.2°C 49.6°F9.8°C 62% 11.0 mph NNW17.7 kmh NNW 20.0 mph32.2 kmh 30.19 in1022.4 mb 0.00 in0.0 mm 0.00 in0.0 mm 0.01 in0.3 mm
03:36 PM 62.8°F17.1°C 48.6°F9.2°C 60% 12.0 mph NNW19.3 kmh NNW 21.0 mph33.8 kmh 30.19 in1022.4 mb 0.00 in0.0 mm 0.00 in0.0 mm 0.01 in0.3 mm
03:39 PM 62.6°F17.0°C 49.5°F9.7°C 62% 13.0 mph NNW20.9 kmh NNW 21.0 mph33.8 kmh 30.19 in1022.4 mb 0.00 in0.0 mm 0.00 in0.0 mm 0.01 in0.3 mm
03:42 PM 63.0°F17.2°C 49.8°F9.9°C 62% 13.0 mph NNW20.9 kmh NNW 21.0 mph33.8 kmh 30.19 in1022.4 mb 0.00 in0.0 mm 0.00 in0.0 mm 0.01 in0.3 mm
03:45 PM 63.3°F17.4°C 48.7°F9.3°C 59% 12.0 mph NNW19.3 kmh NNW 19.0 mph30.6 kmh 30.19 in1022.4 mb 0.00 in0.0 mm 0.00 in0.0 mm 0.01 in0.3 mm
03:48 PM 63.7°F17.6°C 49.5°F9.7°C 60% 11.0 mph NNW17.7 kmh NNW 19.0 mph30.6 kmh 30.19 in1022.4 mb 0.00 in0.0 mm 0.00 in0.0 mm 0.01 in0.3 mm
03:51 PM 63.9°F17.7°C 49.3°F9.6°C 59% 11.0 mph NNW17.7 kmh NNW 18.0 mph29.0 kmh 30.19 in1022.4 mb 0.00 in0.0 mm 0.00 in0.0 mm 0.01 in0.3 mm
03:54 PM 63.7°F17.6°C 48.6°F9.2°C 58% 12.0 mph NNW19.3 kmh NNW 24.0 mph38.6 kmh 30.19 in1022.4 mb 0.00 in0.0 mm 0.00 in0.0 mm 0.01 in0.3 mm
03:57 PM 63.5°F17.5°C 48.4°F9.1°C 58% 12.0 mph N19.3 kmh N 24.0 mph38.6 kmh 30.19 in1022.4 mb 0.00 in0.0 mm 0.00 in0.0 mm 0.01 in0.3 mm
04:00 PM 63.5°F17.5°C 48.4°F9.1°C 58% 13.0 mph N20.9 kmh N 24.0 mph38.6 kmh 30.20 in1022.7 mb 0.00 in0.0 mm 0.00 in0.0 mm 0.01 in0.3 mm
04:03 PM 63.5°F17.5°C 48.4°F9.1°C 58% 12.0 mph N19.3 kmh N 24.0 mph38.6 kmh 30.20 in1022.7 mb 0.00 in0.0 mm 0.00 in0.0 mm 0.01 in0.3 mm
04:06 PM 63.9°F17.7°C 50.5°F10.3°C 62% 10.0 mph NNW16.1 kmh NNW 20.0 mph32.2 kmh 30.20 in1022.7 mb 0.00 in0.0 mm 0.00 in0.0 mm 0.01 in0.3 mm
04:09 PM 64.0°F17.8°C 49.5°F9.7°C 59% 9.0 mph NNW14.5 kmh NNW 20.0 mph32.2 kmh 30.20 in1022.7 mb 0.00 in0.0 mm 0.00 in0.0 mm 0.01 in0.3 mm
04:12 PM 64.2°F17.9°C 49.6°F9.8°C 59% 7.0 mph NNW11.3 kmh NNW 16.0 mph25.7 kmh 30.20 in1022.7 mb 0.00 in0.0 mm 0.00 in0.0 mm 0.01 in0.3 mm
04:15 PM 64.6°F18.1°C 48.9°F9.4°C 57% 8.0 mph NNW12.9 kmh NNW 19.0 mph30.6 kmh 30.20 in1022.7 mb 0.00 in0.0 mm 0.00 in0.0 mm 0.01 in0.3 mm
04:18 PM 64.2°F17.9°C 49.3°F9.6°C 58% 9.0 mph NNW14.5 kmh NNW 19.0 mph30.6 kmh 30.20 in1022.7 mb 0.00 in0.0 mm 0.00 in0.0 mm 0.01 in0.3 mm
04:21 PM 64.0°F17.8°C 49.1°F9.5°C 58% 10.0 mph NNW16.1 kmh NNW 19.0 mph30.6 kmh 30.20 in1022.7 mb 0.00 in0.0 mm 0.00 in0.0 mm 0.01 in0.3 mm
04:24 PM 63.9°F17.7°C 48.4°F9.1°C 57% 11.0 mph NNW17.7 kmh NNW 19.0 mph30.6 kmh 30.20 in1022.7 mb 0.00 in0.0 mm 0.00 in0.0 mm 0.01 in0.3 mm
04:27 PM 63.7°F17.6°C 48.0°F8.9°C 57% 12.0 mph NNW19.3 kmh NNW 23.0 mph37.0 kmh 30.20 in1022.7 mb 0.00 in0.0 mm 0.00 in0.0 mm 0.01 in0.3 mm
04:30 PM 63.0°F17.2°C 47.8°F8.8°C 58% 12.0 mph NNW19.3 kmh NNW 23.0 mph37.0 kmh 30.20 in1022.7 mb 0.00 in0.0 mm 0.00 in0.0 mm 0.01 in0.3 mm
04:33 PM 62.2°F16.8°C 47.8°F8.8°C 59% 11.0 mph NNW17.7 kmh NNW 23.0 mph37.0 kmh 30.20 in1022.7 mb 0.00 in0.0 mm 0.00 in0.0 mm 0.01 in0.3 mm
04:36 PM 62.1°F16.7°C 48.0°F8.9°C 60% 10.0 mph NNW16.1 kmh NNW 23.0 mph37.0 kmh 30.20 in1022.7 mb 0.00 in0.0 mm 0.00 in0.0 mm 0.01 in0.3 mm
04:39 PM 62.4°F16.9°C 48.7°F9.3°C 61% 8.0 mph NNW12.9 kmh NNW 20.0 mph32.2 kmh 30.20 in1022.7 mb 0.00 in0.0 mm 0.00 in0.0 mm 0.01 in0.3 mm
04:42 PM 63.0°F17.2°C 48.7°F9.3°C 60% 8.0 mph NNW12.9 kmh NNW 20.0 mph32.2 kmh 30.20 in1022.7 mb 0.00 in0.0 mm 0.00 in0.0 mm 0.01 in0.3 mm
04:45 PM 63.3°F17.4°C 48.7°F9.3°C 59% 8.0 mph NNW12.9 kmh NNW 18.0 mph29.0 kmh 30.21 in1023.0 mb 0.00 in0.0 mm 0.00 in0.0 mm 0.01 in0.3 mm
04:48 PM 63.7°F17.6°C 49.5°F9.7°C 60% 9.0 mph NNW14.5 kmh NNW 16.0 mph25.7 kmh 30.21 in1023.0 mb 0.00 in0.0 mm 0.00 in0.0 mm 0.01 in0.3 mm
04:51 PM 63.7°F17.6°C 48.2°F9.0°C 57% 10.0 mph NNW16.1 kmh NNW 22.0 mph35.4 kmh 30.21 in1023.0 mb 0.00 in0.0 mm 0.00 in0.0 mm 0.01 in0.3 mm
04:54 PM 63.5°F17.5°C 48.0°F8.9°C 57% 10.0 mph NNW16.1 kmh NNW 22.0 mph35.4 kmh 30.21 in1023.0 mb 0.00 in0.0 mm 0.00 in0.0 mm 0.01 in0.3 mm
04:57 PM 63.3°F17.4°C 48.2°F9.0°C 58% 9.0 mph NNW14.5 kmh NNW 22.0 mph35.4 kmh 30.21 in1023.0 mb 0.00 in0.0 mm 0.00 in0.0 mm 0.01 in0.3 mm
05:00 PM 63.3°F17.4°C 48.2°F9.0°C 58% 7.0 mph NNW11.3 kmh NNW 22.0 mph35.4 kmh 30.21 in1023.0 mb 0.00 in0.0 mm 0.00 in0.0 mm 0.01 in0.3 mm
05:03 PM 63.3°F17.4°C 47.8°F8.8°C 57% 5.0 mph NNW8.0 kmh NNW 15.0 mph24.1 kmh 30.21 in1023.0 mb 0.00 in0.0 mm 0.00 in0.0 mm 0.01 in0.3 mm
05:06 PM 63.1°F17.3°C 47.7°F8.7°C 57% 6.0 mph NNW9.7 kmh NNW 22.0 mph35.4 kmh 30.22 in1023.4 mb 0.00 in0.0 mm 0.00 in0.0 mm 0.01 in0.3 mm
05:09 PM 63.1°F17.3°C 48.2°F9.0°C 58% 7.0 mph NNW11.3 kmh NNW 22.0 mph35.4 kmh 30.22 in1023.4 mb 0.00 in0.0 mm 0.00 in0.0 mm 0.01 in0.3 mm
05:12 PM 63.1°F17.3°C 48.2°F9.0°C 58% 8.0 mph NNW12.9 kmh NNW 22.0 mph35.4 kmh 30.22 in1023.4 mb 0.00 in0.0 mm 0.00 in0.0 mm 0.01 in0.3 mm
05:15 PM 63.1°F17.3°C 48.0°F8.9°C 58% 7.0 mph NNW11.3 kmh NNW 19.0 mph30.6 kmh 30.22 in1023.4 mb 0.00 in0.0 mm 0.00 in0.0 mm 0.01 in0.3 mm
05:18 PM 63.1°F17.3°C 47.1°F8.4°C 56% 7.0 mph NNW11.3 kmh NNW 19.0 mph30.6 kmh 30.22 in1023.4 mb 0.00 in0.0 mm 0.00 in0.0 mm 0.01 in0.3 mm
05:21 PM 63.1°F17.3°C 47.1°F8.4°C 56% 7.0 mph NNW11.3 kmh NNW 20.0 mph32.2 kmh 30.22 in1023.4 mb 0.00 in0.0 mm 0.00 in0.0 mm 0.01 in0.3 mm
05:24 PM 62.8°F17.1°C 46.9°F8.3°C 56% 9.0 mph NNW14.5 kmh NNW 20.0 mph32.2 kmh 30.22 in1023.4 mb 0.00 in0.0 mm 0.00 in0.0 mm 0.01 in0.3 mm
05:27 PM 62.2°F16.8°C 46.2°F7.9°C 56% 10.0 mph NNW16.1 kmh NNW 20.0 mph32.2 kmh 30.22 in1023.4 mb 0.00 in0.0 mm 0.00 in0.0 mm 0.01 in0.3 mm
05:30 PM 61.9°F16.6°C 46.9°F8.3°C 58% 10.0 mph NNW16.1 kmh NNW 20.0 mph32.2 kmh 30.23 in1023.7 mb 0.00 in0.0 mm 0.00 in0.0 mm 0.01 in0.3 mm
05:33 PM 61.7°F16.5°C 46.8°F8.2°C 58% 9.0 mph NNW14.5 kmh NNW 19.0 mph30.6 kmh 30.23 in1023.7 mb 0.00 in0.0 mm 0.00 in0.0 mm 0.01 in0.3 mm
05:36 PM 61.3°F16.3°C 45.5°F7.5°C 56% 10.0 mph NNW16.1 kmh NNW 19.0 mph30.6 kmh 30.23 in1023.7 mb 0.00 in0.0 mm 0.00 in0.0 mm 0.01 in0.3 mm
05:39 PM 61.0°F16.1°C 45.7°F7.6°C 57% 10.0 mph NNW16.1 kmh NNW 19.0 mph30.6 kmh 30.23 in1023.7 mb 0.00 in0.0 mm 0.00 in0.0 mm 0.01 in0.3 mm
05:42 PM 61.0°F16.1°C 46.0°F7.8°C 58% 9.0 mph NNW14.5 kmh NNW 19.0 mph30.6 kmh 30.23 in1023.7 mb 0.00 in0.0 mm 0.00 in0.0 mm 0.01 in0.3 mm
05:45 PM 60.8°F16.0°C 45.0°F7.2°C 56% 9.0 mph NNW14.5 kmh NNW 20.0 mph32.2 kmh 30.23 in1023.7 mb 0.00 in0.0 mm 0.00 in0.0 mm 0.01 in0.3 mm
05:48 PM 60.6°F15.9°C 44.8°F7.1°C 56% 11.0 mph NNW17.7 kmh NNW 20.0 mph32.2 kmh 30.23 in1023.7 mb 0.00 in0.0 mm 0.00 in0.0 mm 0.01 in0.3 mm
05:51 PM 60.4°F15.8°C 45.1°F7.3°C 57% 13.0 mph NNW20.9 kmh NNW 22.0 mph35.4 kmh 30.23 in1023.7 mb 0.00 in0.0 mm 0.00 in0.0 mm 0.01 in0.3 mm
05:54 PM 60.4°F15.8°C 45.5°F7.5°C 58% 12.0 mph NNW19.3 kmh NNW 22.0 mph35.4 kmh 30.23 in1023.7 mb 0.00 in0.0 mm 0.00 in0.0 mm 0.01 in0.3 mm
05:57 PM 60.4°F15.8°C 45.7°F7.6°C 58% 12.0 mph NNW19.3 kmh NNW 22.0 mph35.4 kmh 30.23 in1023.7 mb 0.00 in0.0 mm 0.00 in0.0 mm 0.01 in0.3 mm
06:00 PM 60.6°F15.9°C 46.2°F7.9°C 59% 11.0 mph NNW17.7 kmh NNW 22.0 mph35.4 kmh 30.23 in1023.7 mb 0.00 in0.0 mm 0.00 in0.0 mm 0.01 in0.3 mm
06:03 PM 60.4°F15.8°C 45.7°F7.6°C 58% 10.0 mph NNW16.1 kmh NNW 20.0 mph32.2 kmh 30.23 in1023.7 mb 0.00 in0.0 mm 0.00 in0.0 mm 0.01 in0.3 mm
06:06 PM 60.3°F15.7°C 45.5°F7.5°C 58% 11.0 mph NNW17.7 kmh NNW 20.0 mph32.2 kmh 30.24 in1024.0 mb 0.00 in0.0 mm 0.00 in0.0 mm 0.01 in0.3 mm
06:09 PM 60.1°F15.6°C 45.3°F7.4°C 58% 11.0 mph NNW17.7 kmh NNW 20.0 mph32.2 kmh 30.24 in1024.0 mb 0.00 in0.0 mm 0.00 in0.0 mm 0.01 in0.3 mm
06:12 PM 59.7°F15.4°C 45.0°F7.2°C 58% 10.0 mph NNW16.1 kmh NNW 20.0 mph32.2 kmh 30.24 in1024.0 mb 0.00 in0.0 mm 0.00 in0.0 mm 0.01 in0.3 mm
06:15 PM 59.5°F15.3°C 44.8°F7.1°C 58% 9.0 mph NNW14.5 kmh NNW 20.0 mph32.2 kmh 30.24 in1024.0 mb 0.00 in0.0 mm 0.00 in0.0 mm 0.01 in0.3 mm
06:18 PM 59.4°F15.2°C 44.6°F7.0°C 58% 7.0 mph NNW11.3 kmh NNW 17.0 mph27.4 kmh 30.24 in1024.0 mb 0.00 in0.0 mm 0.00 in0.0 mm 0.01 in0.3 mm
06:21 PM 59.4°F15.2°C 45.1°F7.3°C 59% 7.0 mph NNW11.3 kmh NNW 17.0 mph27.4 kmh 30.24 in1024.0 mb 0.00 in0.0 mm 0.00 in0.0 mm 0.01 in0.3 mm
06:24 PM 59.5°F15.3°C 45.1°F7.3°C 59% 7.0 mph NNW11.3 kmh NNW 18.0 mph29.0 kmh 30.24 in1024.0 mb 0.00 in0.0 mm 0.00 in0.0 mm 0.01 in0.3 mm
06:27 PM 59.4°F15.2°C 44.1°F6.7°C 57% 9.0 mph NNW14.5 kmh NNW 23.0 mph37.0 kmh 30.24 in1024.0 mb 0.00 in0.0 mm 0.00 in0.0 mm 0.01 in0.3 mm
06:30 PM 58.8°F14.9°C 43.7°F6.5°C 57% 11.0 mph NNW17.7 kmh NNW 23.0 mph37.0 kmh 30.24 in1024.0 mb 0.00 in0.0 mm 0.00 in0.0 mm 0.01 in0.3 mm
06:33 PM 58.5°F14.7°C 43.2°F6.2°C 57% 13.0 mph NNW20.9 kmh NNW 23.0 mph37.0 kmh 30.24 in1024.0 mb 0.00 in0.0 mm 0.00 in0.0 mm 0.01 in0.3 mm
06:36 PM 57.9°F14.4°C 43.3°F6.3°C 58% 13.0 mph NNW20.9 kmh NNW 23.0 mph37.0 kmh 30.25 in1024.4 mb 0.00 in0.0 mm 0.00 in0.0 mm 0.01 in0.3 mm
06:39 PM 57.7°F14.3°C 43.5°F6.4°C 59% 13.0 mph NNW20.9 kmh NNW 23.0 mph37.0 kmh 30.24 in1024.0 mb 0.00 in0.0 mm 0.00 in0.0 mm 0.01 in0.3 mm
06:42 PM 57.6°F14.2°C 43.7°F6.5°C 60% 13.0 mph NNW20.9 kmh NNW 23.0 mph37.0 kmh 30.24 in1024.0 mb 0.00 in0.0 mm 0.00 in0.0 mm 0.01 in0.3 mm
06:45 PM 57.2°F14.0°C 43.0°F6.1°C 59% 13.0 mph NNW20.9 kmh NNW 22.0 mph35.4 kmh 30.25 in1024.4 mb 0.00 in0.0 mm 0.00 in0.0 mm 0.01 in0.3 mm
06:48 PM 57.0°F13.9°C 43.7°F6.5°C 61% 13.0 mph NNW20.9 kmh NNW 22.0 mph35.4 kmh 30.25 in1024.4 mb 0.00 in0.0 mm 0.00 in0.0 mm 0.01 in0.3 mm
06:51 PM 56.8°F13.8°C 43.5°F6.4°C 61% 13.0 mph NNW20.9 kmh NNW 21.0 mph33.8 kmh 30.25 in1024.4 mb 0.00 in0.0 mm 0.00 in0.0 mm 0.01 in0.3 mm
06:54 PM 56.8°F13.8°C 43.9°F6.6°C 62% 11.0 mph NNW17.7 kmh NNW 21.0 mph33.8 kmh 30.25 in1024.4 mb 0.00 in0.0 mm 0.00 in0.0 mm 0.01 in0.3 mm
06:57 PM 56.7°F13.7°C 43.9°F6.6°C 62% 9.0 mph NNW14.5 kmh NNW 21.0 mph33.8 kmh 30.25 in1024.4 mb 0.00 in0.0 mm 0.00 in0.0 mm 0.01 in0.3 mm
07:00 PM 56.7°F13.7°C 44.1°F6.7°C 63% 8.0 mph NNW12.9 kmh NNW 16.0 mph25.7 kmh 30.26 in1024.7 mb 0.00 in0.0 mm 0.00 in0.0 mm 0.01 in0.3 mm
07:03 PM 56.5°F13.6°C 44.1°F6.7°C 63% 8.0 mph NNW12.9 kmh NNW 19.0 mph30.6 kmh 30.25 in1024.4 mb 0.00 in0.0 mm 0.00 in0.0 mm 0.01 in0.3 mm
07:06 PM 56.3°F13.5°C 43.9°F6.6°C 63% 10.0 mph NNW16.1 kmh NNW 19.0 mph30.6 kmh 30.25 in1024.4 mb 0.00 in0.0 mm 0.00 in0.0 mm 0.01 in0.3 mm
07:09 PM 56.1°F13.4°C 43.7°F6.5°C 63% 11.0 mph NNW17.7 kmh NNW 23.0 mph37.0 kmh 30.25 in1024.4 mb 0.00 in0.0 mm 0.00 in0.0 mm 0.01 in0.3 mm
07:12 PM 55.9°F13.3°C 43.9°F6.6°C 64% 13.0 mph NNW20.9 kmh NNW 23.0 mph37.0 kmh 30.26 in1024.7 mb 0.00 in0.0 mm 0.00 in0.0 mm 0.01 in0.3 mm
07:15 PM 55.8°F13.2°C 43.9°F6.6°C 64% 13.0 mph NNW20.9 kmh NNW 23.0 mph37.0 kmh 30.25 in1024.4 mb 0.00 in0.0 mm 0.00 in0.0 mm 0.01 in0.3 mm
07:18 PM 55.6°F13.1°C 43.5°F6.4°C 64% 13.0 mph NNW20.9 kmh NNW 23.0 mph37.0 kmh 30.26 in1024.7 mb 0.00 in0.0 mm 0.00 in0.0 mm 0.01 in0.3 mm
07:21 PM 55.4°F13.0°C 43.9°F6.6°C 65% 12.0 mph NNW19.3 kmh NNW 21.0 mph33.8 kmh 30.26 in1024.7 mb 0.00 in0.0 mm 0.00 in0.0 mm 0.01 in0.3 mm
07:24 PM 55.2°F12.9°C 44.1°F6.7°C 66% 11.0 mph NNW17.7 kmh NNW 21.0 mph33.8 kmh 30.26 in1024.7 mb 0.00 in0.0 mm 0.00 in0.0 mm 0.01 in0.3 mm
07:27 PM 55.2°F12.9°C 44.1°F6.7°C 66% 11.0 mph NNW17.7 kmh NNW 17.0 mph27.4 kmh 30.26 in1024.7 mb 0.00 in0.0 mm 0.00 in0.0 mm 0.01 in0.3 mm
07:30 PM 55.2°F12.9°C 44.1°F6.7°C 66% 11.0 mph NNW17.7 kmh NNW 17.0 mph27.4 kmh 30.26 in1024.7 mb 0.00 in0.0 mm 0.00 in0.0 mm 0.01 in0.3 mm
07:33 PM 55.2°F12.9°C 44.1°F6.7°C 66% 11.0 mph N17.7 kmh N 17.0 mph27.4 kmh 30.26 in1024.7 mb 0.00 in0.0 mm 0.00 in0.0 mm 0.01 in0.3 mm
07:36 PM 55.4°F13.0°C 44.6°F7.0°C 67% 10.0 mph N16.1 kmh N 16.0 mph25.7 kmh 30.26 in1024.7 mb 0.00 in0.0 mm 0.00 in0.0 mm 0.01 in0.3 mm
07:39 PM 55.4°F13.0°C 44.6°F7.0°C 67% 10.0 mph N16.1 kmh N 16.0 mph25.7 kmh 30.27 in1025.1 mb 0.00 in0.0 mm 0.00 in0.0 mm 0.01 in0.3 mm
07:42 PM 55.6°F13.1°C 44.8°F7.1°C 67% 10.0 mph NNW16.1 kmh NNW 17.0 mph27.4 kmh 30.27 in1025.1 mb 0.00 in0.0 mm 0.00 in0.0 mm 0.01 in0.3 mm
07:45 PM 55.6°F13.1°C 44.8°F7.1°C 67% 10.0 mph NNW16.1 kmh NNW 17.0 mph27.4 kmh 30.27 in1025.1 mb 0.00 in0.0 mm 0.00 in0.0 mm 0.01 in0.3 mm
07:48 PM 55.6°F13.1°C 44.8°F7.1°C 67% 10.0 mph NNW16.1 kmh NNW 17.0 mph27.4 kmh 30.27 in1025.1 mb 0.00 in0.0 mm 0.00 in0.0 mm 0.01 in0.3 mm
07:51 PM 55.6°F13.1°C 44.2°F6.8°C 66% 10.0 mph NNW16.1 kmh NNW 17.0 mph27.4 kmh 30.27 in1025.1 mb 0.00 in0.0 mm 0.00 in0.0 mm 0.01 in0.3 mm
07:54 PM 55.4°F13.0°C 44.6°F7.0°C 67% 10.0 mph N16.1 kmh N 16.0 mph25.7 kmh 30.27 in1025.1 mb 0.00 in0.0 mm 0.00 in0.0 mm 0.01 in0.3 mm
07:57 PM 55.2°F12.9°C 44.8°F7.1°C 68% 10.0 mph N16.1 kmh N 16.0 mph25.7 kmh 30.27 in1025.1 mb 0.00 in0.0 mm 0.00 in0.0 mm 0.01 in0.3 mm
08:00 PM 55.0°F12.8°C 44.8°F7.1°C 68% 10.0 mph NNW16.1 kmh NNW 16.0 mph25.7 kmh 30.27 in1025.1 mb 0.00 in0.0 mm 0.00 in0.0 mm 0.01 in0.3 mm
08:03 PM 55.0°F12.8°C 44.6°F7.0°C 68% 11.0 mph N17.7 kmh N 18.0 mph29.0 kmh 30.27 in1025.1 mb 0.00 in0.0 mm 0.00 in0.0 mm 0.01 in0.3 mm
08:06 PM 54.9°F12.7°C 44.6°F7.0°C 68% 11.0 mph N17.7 kmh N 18.0 mph29.0 kmh 30.27 in1025.1 mb 0.00 in0.0 mm 0.00 in0.0 mm 0.01 in0.3 mm
08:09 PM 54.9°F12.7°C 45.0°F7.2°C 69% 10.0 mph N16.1 kmh N 18.0 mph29.0 kmh 30.27 in1025.1 mb 0.00 in0.0 mm 0.00 in0.0 mm 0.01 in0.3 mm
08:12 PM 54.9°F12.7°C 44.8°F7.1°C 69% 9.0 mph N14.5 kmh N 16.0 mph25.7 kmh 30.28 in1025.4 mb 0.00 in0.0 mm 0.00 in0.0 mm 0.01 in0.3 mm
08:15 PM 54.7°F12.6°C 45.1°F7.3°C 70% 8.0 mph NNW12.9 kmh NNW 14.0 mph22.5 kmh 30.27 in1025.1 mb 0.00 in0.0 mm 0.00 in0.0 mm 0.01 in0.3 mm
08:18 PM 54.7°F12.6°C 45.0°F7.2°C 70% 8.0 mph NNW12.9 kmh NNW 14.0 mph22.5 kmh 30.28 in1025.4 mb 0.00 in0.0 mm 0.00 in0.0 mm 0.01 in0.3 mm
08:21 PM 54.3°F12.4°C 44.8°F7.1°C 70% 8.0 mph NNW12.9 kmh NNW 14.0 mph22.5 kmh 30.28 in1025.4 mb 0.00 in0.0 mm 0.00 in0.0 mm 0.01 in0.3 mm
08:24 PM 54.3°F12.4°C 44.8°F7.1°C 70% 8.0 mph NNW12.9 kmh NNW 15.0 mph24.1 kmh 30.28 in1025.4 mb 0.00 in0.0 mm 0.00 in0.0 mm 0.01 in0.3 mm
08:27 PM 54.1°F12.3°C 44.6°F7.0°C 70% 8.0 mph NNW12.9 kmh NNW 16.0 mph25.7 kmh 30.28 in1025.4 mb 0.00 in0.0 mm 0.00 in0.0 mm 0.01 in0.3 mm
08:30 PM 54.0°F12.2°C 44.4°F6.9°C 70% 7.0 mph NNW11.3 kmh NNW 16.0 mph25.7 kmh 30.28 in1025.4 mb 0.00 in0.0 mm 0.00 in0.0 mm 0.01 in0.3 mm
08:33 PM 53.8°F12.1°C 44.1°F6.7°C 70% 8.0 mph NNW12.9 kmh NNW 16.0 mph25.7 kmh 30.28 in1025.4 mb 0.00 in0.0 mm 0.00 in0.0 mm 0.01 in0.3 mm
08:36 PM 53.6°F12.0°C 44.4°F6.9°C 71% 7.0 mph NNW11.3 kmh NNW 15.0 mph24.1 kmh 30.28 in1025.4 mb 0.00 in0.0 mm 0.00 in0.0 mm 0.01 in0.3 mm
08:39 PM 53.4°F11.9°C 44.2°F6.8°C 71% 7.0 mph NNW11.3 kmh NNW 16.0 mph25.7 kmh 30.29 in1025.7 mb 0.00 in0.0 mm 0.00 in0.0 mm 0.01 in0.3 mm
08:42 PM 53.2°F11.8°C 44.1°F6.7°C 71% 8.0 mph NNW12.9 kmh NNW 16.0 mph25.7 kmh 30.29 in1025.7 mb 0.00 in0.0 mm 0.00 in0.0 mm 0.01 in0.3 mm
08:45 PM 53.1°F11.7°C 44.2°F6.8°C 72% 8.0 mph NNW12.9 kmh NNW 16.0 mph25.7 kmh 30.29 in1025.7 mb 0.00 in0.0 mm 0.00 in0.0 mm 0.01 in0.3 mm
08:48 PM 53.1°F11.7°C 44.2°F6.8°C 72% 7.0 mph NNW11.3 kmh NNW 15.0 mph24.1 kmh 30.29 in1025.7 mb 0.00 in0.0 mm 0.00 in0.0 mm 0.01 in0.3 mm
08:51 PM 52.9°F11.6°C 44.1°F6.7°C 72% 7.0 mph NNW11.3 kmh NNW 15.0 mph24.1 kmh 30.29 in1025.7 mb 0.00 in0.0 mm 0.00 in0.0 mm 0.01 in0.3 mm
08:54 PM 52.7°F11.5°C 44.2°F6.8°C 73% 6.0 mph NNW9.7 kmh NNW 11.0 mph17.7 kmh 30.29 in1025.7 mb 0.00 in0.0 mm 0.00 in0.0 mm 0.01 in0.3 mm
08:57 PM 52.5°F11.4°C 44.2°F6.8°C 73% 6.0 mph NNW9.7 kmh NNW 11.0 mph17.7 kmh 30.29 in1025.7 mb 0.00 in0.0 mm 0.00 in0.0 mm 0.01 in0.3 mm
09:00 PM 52.3°F11.3°C 44.4°F6.9°C 74% 6.0 mph NNW9.7 kmh NNW 13.0 mph20.9 kmh 30.29 in1025.7 mb 0.00 in0.0 mm 0.00 in0.0 mm 0.01 in0.3 mm
09:03 PM 52.3°F11.3°C 44.2°F6.8°C 74% 6.0 mph NNW9.7 kmh NNW 14.0 mph22.5 kmh 30.29 in1025.7 mb 0.00 in0.0 mm 0.00 in0.0 mm 0.01 in0.3 mm
09:06 PM 52.2°F11.2°C 44.2°F6.8°C 74% 7.0 mph NNW11.3 kmh NNW 14.0 mph22.5 kmh 30.29 in1025.7 mb 0.00 in0.0 mm 0.00 in0.0 mm 0.01 in0.3 mm
09:09 PM 52.2°F11.2°C 44.4°F6.9°C 75% 8.0 mph NNW12.9 kmh NNW 19.0 mph30.6 kmh 30.29 in1025.7 mb 0.00 in0.0 mm 0.00 in0.0 mm 0.01 in0.3 mm
09:12 PM 52.2°F11.2°C 44.4°F6.9°C 75% 9.0 mph NNW14.5 kmh NNW 19.0 mph30.6 kmh 30.30 in1026.1 mb 0.00 in0.0 mm 0.00 in0.0 mm 0.01 in0.3 mm
09:15 PM 52.0°F11.1°C 44.2°F6.8°C 75% 10.0 mph NNW16.1 kmh NNW 19.0 mph30.6 kmh 30.30 in1026.1 mb 0.00 in0.0 mm 0.00 in0.0 mm 0.01 in0.3 mm
09:18 PM 52.0°F11.1°C 44.2°F6.8°C 75% 10.0 mph NNW16.1 kmh NNW 19.0 mph30.6 kmh 30.30 in1026.1 mb 0.00 in0.0 mm 0.00 in0.0 mm 0.01 in0.3 mm
09:21 PM 52.0°F11.1°C 44.6°F7.0°C 76% 9.0 mph NNW14.5 kmh NNW 15.0 mph24.1 kmh 30.30 in1026.1 mb 0.00 in0.0 mm 0.00 in0.0 mm 0.01 in0.3 mm
09:24 PM 52.0°F11.1°C 44.6°F7.0°C 76% 7.0 mph NNW11.3 kmh NNW 14.0 mph22.5 kmh 30.30 in1026.1 mb 0.00 in0.0 mm 0.00 in0.0 mm 0.01 in0.3 mm
09:27 PM 51.6°F10.9°C 44.4°F6.9°C 76% 6.0 mph NNW9.7 kmh NNW 11.0 mph17.7 kmh 30.30 in1026.1 mb 0.00 in0.0 mm 0.00 in0.0 mm 0.01 in0.3 mm
09:30 PM 51.6°F10.9°C 44.2°F6.8°C 76% 6.0 mph NNW9.7 kmh NNW 11.0 mph17.7 kmh 30.30 in1026.1 mb 0.00 in0.0 mm 0.00 in0.0 mm 0.01 in0.3 mm
09:33 PM 51.6°F10.9°C 44.2°F6.8°C 76% 4.0 mph NNW6.4 kmh NNW 11.0 mph17.7 kmh 30.31 in1026.4 mb 0.00 in0.0 mm 0.00 in0.0 mm 0.01 in0.3 mm
09:36 PM 51.6°F10.9°C 44.2°F6.8°C 76% 4.0 mph NNW6.4 kmh NNW 11.0 mph17.7 kmh 30.31 in1026.4 mb 0.00 in0.0 mm 0.00 in0.0 mm 0.01 in0.3 mm
09:39 PM 51.6°F10.9°C 44.2°F6.8°C 76% 4.0 mph NNW6.4 kmh NNW 9.0 mph14.5 kmh 30.31 in1026.4 mb 0.00 in0.0 mm 0.00 in0.0 mm 0.01 in0.3 mm
09:42 PM 51.6°F10.9°C 44.2°F6.8°C 76% 4.0 mph NNW6.4 kmh NNW 9.0 mph14.5 kmh 30.31 in1026.4 mb 0.00 in0.0 mm 0.00 in0.0 mm 0.01 in0.3 mm
09:45 PM 51.6°F10.9°C 44.2°F6.8°C 76% 4.0 mph NNW6.4 kmh NNW 9.0 mph14.5 kmh 30.30 in1026.1 mb 0.00 in0.0 mm 0.00 in0.0 mm 0.01 in0.3 mm
09:48 PM 51.6°F10.9°C 44.2°F6.8°C 76% 4.0 mph NNW6.4 kmh NNW 9.0 mph14.5 kmh 30.31 in1026.4 mb 0.00 in0.0 mm 0.00 in0.0 mm 0.01 in0.3 mm
09:51 PM 51.6°F10.9°C 44.2°F6.8°C 76% 4.0 mph NNW6.4 kmh NNW 11.0 mph17.7 kmh 30.31 in1026.4 mb 0.00 in0.0 mm 0.00 in0.0 mm 0.01 in0.3 mm
09:54 PM 51.6°F10.9°C 44.2°F6.8°C 76% 5.0 mph NNW8.0 kmh NNW 13.0 mph20.9 kmh 30.31 in1026.4 mb 0.00 in0.0 mm 0.00 in0.0 mm 0.01 in0.3 mm
09:57 PM 51.6°F10.9°C 44.2°F6.8°C 76% 5.0 mph NNW8.0 kmh NNW 13.0 mph20.9 kmh 30.31 in1026.4 mb 0.00 in0.0 mm 0.00 in0.0 mm 0.01 in0.3 mm
10:00 PM 51.6°F10.9°C 44.2°F6.8°C 76% 5.0 mph NNW8.0 kmh NNW 13.0 mph20.9 kmh 30.31 in1026.4 mb 0.00 in0.0 mm 0.00 in0.0 mm 0.01 in0.3 mm
10:03 PM 51.6°F10.9°C 44.2°F6.8°C 76% 5.0 mph NNW8.0 kmh NNW 13.0 mph20.9 kmh 30.31 in1026.4 mb 0.00 in0.0 mm 0.00 in0.0 mm 0.01 in0.3 mm
10:06 PM 51.6°F10.9°C 44.2°F6.8°C 76% 4.0 mph NNW6.4 kmh NNW 9.0 mph14.5 kmh 30.31 in1026.4 mb 0.00 in0.0 mm 0.00 in0.0 mm 0.01 in0.3 mm
10:09 PM 51.6°F10.9°C 44.2°F6.8°C 76% 4.0 mph NNW6.4 kmh NNW 11.0 mph17.7 kmh 30.31 in1026.4 mb 0.00 in0.0 mm 0.00 in0.0 mm 0.01 in0.3 mm
10:12 PM 51.6°F10.9°C 44.2°F6.8°C 76% 4.0 mph NNW6.4 kmh NNW 11.0 mph17.7 kmh 30.32 in1026.8 mb 0.00 in0.0 mm 0.00 in0.0 mm 0.01 in0.3 mm
10:15 PM 51.6°F10.9°C 44.2°F6.8°C 76% 5.0 mph NNW8.0 kmh NNW 11.0 mph17.7 kmh 30.32 in1026.8 mb 0.00 in0.0 mm 0.00 in0.0 mm 0.01 in0.3 mm
10:18 PM 51.6°F10.9°C 44.2°F6.8°C 76% 5.0 mph NNW8.0 kmh NNW 12.0 mph19.3 kmh 30.32 in1026.8 mb 0.00 in0.0 mm 0.00 in0.0 mm 0.01 in0.3 mm
10:21 PM 51.6°F10.9°C 44.2°F6.8°C 76% 5.0 mph NNW8.0 kmh NNW 12.0 mph19.3 kmh 30.32 in1026.8 mb 0.00 in0.0 mm 0.00 in0.0 mm 0.01 in0.3 mm
10:24 PM 51.6°F10.9°C 44.2°F6.8°C 76% 6.0 mph NNW9.7 kmh NNW 12.0 mph19.3 kmh 30.32 in1026.8 mb 0.00 in0.0 mm 0.00 in0.0 mm 0.01 in0.3 mm
10:27 PM 51.6°F10.9°C 44.2°F6.8°C 76% 6.0 mph NNW9.7 kmh NNW 12.0 mph19.3 kmh 30.32 in1026.8 mb 0.00 in0.0 mm 0.00 in0.0 mm 0.01 in0.3 mm
10:30 PM 51.6°F10.9°C 44.2°F6.8°C 76% 6.0 mph NNW9.7 kmh NNW 12.0 mph19.3 kmh 30.32 in1026.8 mb 0.00 in0.0 mm 0.00 in0.0 mm 0.01 in0.3 mm
10:33 PM 51.6°F10.9°C 44.2°F6.8°C 76% 6.0 mph NNW9.7 kmh NNW 12.0 mph19.3 kmh 30.32 in1026.8 mb 0.00 in0.0 mm 0.00 in0.0 mm 0.01 in0.3 mm
10:36 PM 51.6°F10.9°C 44.2°F6.8°C 76% 6.0 mph NNW9.7 kmh NNW 11.0 mph17.7 kmh 30.32 in1026.8 mb 0.00 in0.0 mm 0.00 in0.0 mm 0.01 in0.3 mm
10:39 PM 51.6°F10.9°C 44.2°F6.8°C 76% 5.0 mph NNW8.0 kmh NNW 11.0 mph17.7 kmh 30.32 in1026.8 mb 0.00 in0.0 mm 0.00 in0.0 mm 0.01 in0.3 mm
10:42 PM 51.6°F10.9°C 44.2°F6.8°C 76% 4.0 mph NW6.4 kmh NW 11.0 mph17.7 kmh 30.32 in1026.8 mb 0.00 in0.0 mm 0.00 in0.0 mm 0.01 in0.3 mm
10:45 PM 51.6°F10.9°C 44.2°F6.8°C 76% 3.0 mph NW4.8 kmh NW 11.0 mph17.7 kmh 30.32 in1026.8 mb 0.00 in0.0 mm 0.00 in0.0 mm 0.01 in0.3 mm
10:48 PM 51.6°F10.9°C 44.2°F6.8°C 76% 3.0 mph NW4.8 kmh NW 9.0 mph14.5 kmh 30.32 in1026.8 mb 0.00 in0.0 mm 0.00 in0.0 mm 0.01 in0.3 mm
10:51 PM 51.6°F10.9°C 44.2°F6.8°C 76% 3.0 mph NW4.8 kmh NW 10.0 mph16.1 kmh 30.32 in1026.8 mb 0.00 in0.0 mm 0.00 in0.0 mm 0.01 in0.3 mm
10:54 PM 51.6°F10.9°C 44.2°F6.8°C 76% 3.0 mph NW4.8 kmh NW 10.0 mph16.1 kmh 30.32 in1026.8 mb 0.00 in0.0 mm 0.00 in0.0 mm 0.01 in0.3 mm
10:57 PM 51.6°F10.9°C 44.2°F6.8°C 76% 3.0 mph NW4.8 kmh NW 12.0 mph19.3 kmh 30.32 in1026.8 mb 0.00 in0.0 mm 0.00 in0.0 mm 0.01 in0.3 mm
11:00 PM 51.6°F10.9°C 44.2°F6.8°C 76% 4.0 mph NW6.4 kmh NW 12.0 mph19.3 kmh 30.32 in1026.8 mb 0.00 in0.0 mm 0.00 in0.0 mm 0.01 in0.3 mm
11:03 PM 51.6°F10.9°C 44.2°F6.8°C 76% 3.0 mph NW4.8 kmh NW 12.0 mph19.3 kmh 30.32 in1026.8 mb 0.00 in0.0 mm 0.00 in0.0 mm 0.01 in0.3 mm
11:06 PM 51.6°F10.9°C 44.2°F6.8°C 76% 3.0 mph NW4.8 kmh NW 12.0 mph19.3 kmh 30.32 in1026.8 mb 0.00 in0.0 mm 0.00 in0.0 mm 0.01 in0.3 mm
11:09 PM 51.6°F10.9°C 44.2°F6.8°C 76% 3.0 mph NW4.8 kmh NW 10.0 mph16.1 kmh 30.32 in1026.8 mb 0.00 in0.0 mm 0.00 in0.0 mm 0.01 in0.3 mm
11:12 PM 51.6°F10.9°C 44.2°F6.8°C 76% 3.0 mph NW4.8 kmh NW 9.0 mph14.5 kmh 30.32 in1026.8 mb 0.00 in0.0 mm 0.00 in0.0 mm 0.01 in0.3 mm
11:15 PM 51.6°F10.9°C 44.2°F6.8°C 76% 3.0 mph NNW4.8 kmh NNW 12.0 mph19.3 kmh 30.32 in1026.8 mb 0.00 in0.0 mm 0.00 in0.0 mm 0.01 in0.3 mm
11:18 PM 51.6°F10.9°C 44.2°F6.8°C 76% 4.0 mph NNW6.4 kmh NNW 12.0 mph19.3 kmh 30.32 in1026.8 mb 0.00 in0.0 mm 0.00 in0.0 mm 0.01 in0.3 mm
11:21 PM 51.6°F10.9°C 44.2°F6.8°C 76% 5.0 mph NNW8.0 kmh NNW 13.0 mph20.9 kmh 30.32 in1026.8 mb 0.00 in0.0 mm 0.00 in0.0 mm 0.01 in0.3 mm
11:24 PM 51.6°F10.9°C 44.2°F6.8°C 76% 5.0 mph NNW8.0 kmh NNW 13.0 mph20.9 kmh 30.32 in1026.8 mb 0.00 in0.0 mm 0.00 in0.0 mm 0.01 in0.3 mm
11:27 PM 51.6°F10.9°C 44.2°F6.8°C 76% 5.0 mph NNW8.0 kmh NNW 13.0 mph20.9 kmh 30.33 in1027.1 mb 0.00 in0.0 mm 0.00 in0.0 mm 0.01 in0.3 mm
11:30 PM 51.6°F10.9°C 44.2°F6.8°C 76% 5.0 mph NNW8.0 kmh NNW 12.0 mph19.3 kmh 30.33 in1027.1 mb 0.00 in0.0 mm 0.00 in0.0 mm 0.01 in0.3 mm
11:33 PM 51.6°F10.9°C 44.2°F6.8°C 76% 6.0 mph NNW9.7 kmh NNW 12.0 mph19.3 kmh 30.33 in1027.1 mb 0.00 in0.0 mm 0.00 in0.0 mm 0.01 in0.3 mm
11:36 PM 51.6°F10.9°C 44.2°F6.8°C 76% 6.0 mph NNW9.7 kmh NNW 12.0 mph19.3 kmh 30.33 in1027.1 mb 0.00 in0.0 mm 0.00 in0.0 mm 0.01 in0.3 mm
11:39 PM 51.6°F10.9°C 44.2°F6.8°C 76% 5.0 mph NW8.0 kmh NW 12.0 mph19.3 kmh 30.33 in1027.1 mb 0.00 in0.0 mm 0.00 in0.0 mm 0.01 in0.3 mm
11:42 PM 51.6°F10.9°C 44.2°F6.8°C 76% 6.0 mph NW9.7 kmh NW 12.0 mph19.3 kmh 30.33 in1027.1 mb 0.00 in0.0 mm 0.00 in0.0 mm 0.01 in0.3 mm
11:45 PM 51.6°F10.9°C 44.2°F6.8°C 76% 5.0 mph NW8.0 kmh NW 12.0 mph19.3 kmh 30.33 in1027.1 mb 0.00 in0.0 mm 0.00 in0.0 mm 0.01 in0.3 mm
11:48 PM 51.6°F10.9°C 44.2°F6.8°C 76% 6.0 mph NNW9.7 kmh NNW 12.0 mph19.3 kmh 30.33 in1027.1 mb 0.00 in0.0 mm 0.00 in0.0 mm 0.01 in0.3 mm
11:51 PM 51.6°F10.9°C 44.2°F6.8°C 76% 6.0 mph NNW9.7 kmh NNW 12.0 mph19.3 kmh 30.33 in1027.1 mb 0.00 in0.0 mm 0.00 in0.0 mm 0.01 in0.3 mm
11:54 PM 51.6°F10.9°C 44.2°F6.8°C 76% 6.0 mph NNW9.7 kmh NNW 12.0 mph19.3 kmh 30.33 in1027.1 mb 0.00 in0.0 mm 0.00 in0.0 mm 0.01 in0.3 mm
11:57 PM 51.6°F10.9°C 44.2°F6.8°C 76% 6.0 mph NNW9.7 kmh NNW 15.0 mph24.1 kmh 30.33 in1027.1 mb 0.00 in0.0 mm 0.00 in0.0 mm 0.01 in0.3 mm